<?xml version="1.0" encoding="UTF-8"?>
<gpx version="1.1" creator="https://www.youtrack.es" xsi:schemaLocation="http://www.topografix.com/GPX/1/1 http://www.topografix.com/GPX/1/1/gpx.xsd http://www.garmin.com/xmlschemas/GpxExtensions/v3 http://www.garmin.com/xmlschemas/GpxExtensionsv3.xsd http://www.garmin.com/xmlschemas/TrackPointExtension/v1 http://www.garmin.com/xmlschemas/TrackPointExtensionv1.xsd" xmlns:gpxtpx="http://www.garmin.com/xmlschemas/TrackPointExtension/v1" xmlns:gpxx="http://www.garmin.com/xmlschemas/GpxExtensions/v3" xmlns:xsi="http://www.w3.org/2001/XMLSchema-instance">
  <metadata>
    <link href="https://www.youtrack.es">
      <text>YouTrack.es</text>
    </link>
    <time>2026-05-08T16:28:50Z</time>
  </metadata>
  <trk>
    <src>https://www.youtrack.es</src>
    <link href="https://www.youtrack.es/ruta/8888-via-verda-benicassim">
      <text>YouTrack.es</text>
    </link>
    <trkseg>
      <trkpt lat="40.0564865302" lon="0.0687142555">
        <ele>8.31</ele>
        <time>2019-10-10T07:21:48Z</time>
      </trkpt>
      <trkpt lat="40.0564825907" lon="0.0687113218">
        <ele>8.31</ele>
        <time>2019-10-10T07:21:49Z</time>
      </trkpt>
      <trkpt lat="40.0564869493" lon="0.0687461905">
        <ele>8.31</ele>
        <time>2019-10-10T07:21:55Z</time>
      </trkpt>
      <trkpt lat="40.0564063992" lon="0.0688521378">
        <ele>8.31</ele>
        <time>2019-10-10T07:22:06Z</time>
      </trkpt>
      <trkpt lat="40.0563943293" lon="0.0689512957">
        <ele>8.31</ele>
        <time>2019-10-10T07:22:19Z</time>
      </trkpt>
      <trkpt lat="40.0564809982" lon="0.0690427423">
        <ele>9.27</ele>
        <time>2019-10-10T07:22:32Z</time>
      </trkpt>
      <trkpt lat="40.0565283559" lon="0.0690957159">
        <ele>7.83</ele>
        <time>2019-10-10T07:22:39Z</time>
      </trkpt>
      <trkpt lat="40.0565250870" lon="0.0692001544">
        <ele>7.83</ele>
        <time>2019-10-10T07:22:46Z</time>
      </trkpt>
      <trkpt lat="40.0565017853" lon="0.0693181716">
        <ele>7.83</ele>
        <time>2019-10-10T07:22:53Z</time>
      </trkpt>
      <trkpt lat="40.0565049704" lon="0.0693511963">
        <ele>7.83</ele>
        <time>2019-10-10T07:22:55Z</time>
      </trkpt>
      <trkpt lat="40.0565250870" lon="0.0696356781">
        <ele>6.87</ele>
        <time>2019-10-10T07:23:12Z</time>
      </trkpt>
      <trkpt lat="40.0565304514" lon="0.0696697924">
        <ele>6.87</ele>
        <time>2019-10-10T07:23:15Z</time>
      </trkpt>
      <trkpt lat="40.0565550104" lon="0.0697856303">
        <ele>6.87</ele>
        <time>2019-10-10T07:23:21Z</time>
      </trkpt>
      <trkpt lat="40.0565647334" lon="0.0699595548">
        <ele>6.87</ele>
        <time>2019-10-10T07:23:31Z</time>
      </trkpt>
      <trkpt lat="40.0565518253" lon="0.0701017957">
        <ele>6.39</ele>
        <time>2019-10-10T07:23:42Z</time>
      </trkpt>
      <trkpt lat="40.0565802399" lon="0.0703856070">
        <ele>6.39</ele>
        <time>2019-10-10T07:24:01Z</time>
      </trkpt>
      <trkpt lat="40.0566059723" lon="0.0705956575">
        <ele>6.39</ele>
        <time>2019-10-10T07:24:14Z</time>
      </trkpt>
      <trkpt lat="40.0566153601" lon="0.0708551612">
        <ele>6.39</ele>
        <time>2019-10-10T07:24:31Z</time>
      </trkpt>
      <trkpt lat="40.0566426851" lon="0.0710360426">
        <ele>5.91</ele>
        <time>2019-10-10T07:24:46Z</time>
      </trkpt>
      <trkpt lat="40.0566414278" lon="0.0710642058">
        <ele>5.91</ele>
        <time>2019-10-10T07:24:48Z</time>
      </trkpt>
      <trkpt lat="40.0566779729" lon="0.0713364501">
        <ele>5.42</ele>
        <time>2019-10-10T07:25:05Z</time>
      </trkpt>
      <trkpt lat="40.0567178708" lon="0.0715297367">
        <ele>5.42</ele>
        <time>2019-10-10T07:25:19Z</time>
      </trkpt>
      <trkpt lat="40.0567270909" lon="0.0716275536">
        <ele>5.42</ele>
        <time>2019-10-10T07:25:27Z</time>
      </trkpt>
      <trkpt lat="40.0567357242" lon="0.0716827065">
        <ele>5.42</ele>
        <time>2019-10-10T07:25:31Z</time>
      </trkpt>
      <trkpt lat="40.0567555055" lon="0.0718531106">
        <ele>5.42</ele>
        <time>2019-10-10T07:25:46Z</time>
      </trkpt>
      <trkpt lat="40.0567684975" lon="0.0720884744">
        <ele>5.42</ele>
        <time>2019-10-10T07:26:03Z</time>
      </trkpt>
      <trkpt lat="40.0567491353" lon="0.0723419432">
        <ele>5.42</ele>
        <time>2019-10-10T07:26:21Z</time>
      </trkpt>
      <trkpt lat="40.0567575172" lon="0.0725742895">
        <ele>5.42</ele>
        <time>2019-10-10T07:26:36Z</time>
      </trkpt>
      <trkpt lat="40.0567982532" lon="0.0728224777">
        <ele>5.42</ele>
        <time>2019-10-10T07:26:52Z</time>
      </trkpt>
      <trkpt lat="40.0568096526" lon="0.0728888623">
        <ele>5.42</ele>
        <time>2019-10-10T07:26:57Z</time>
      </trkpt>
      <trkpt lat="40.0568197109" lon="0.0730687380">
        <ele>5.42</ele>
        <time>2019-10-10T07:27:10Z</time>
      </trkpt>
      <trkpt lat="40.0568206329" lon="0.0731730927">
        <ele>5.42</ele>
        <time>2019-10-10T07:27:16Z</time>
      </trkpt>
      <trkpt lat="40.0568346307" lon="0.0734232087">
        <ele>5.42</ele>
        <time>2019-10-10T07:27:31Z</time>
      </trkpt>
      <trkpt lat="40.0568518136" lon="0.0736637693">
        <ele>5.42</ele>
        <time>2019-10-10T07:27:48Z</time>
      </trkpt>
      <trkpt lat="40.0568793062" lon="0.0738909189">
        <ele>6.39</ele>
        <time>2019-10-10T07:28:04Z</time>
      </trkpt>
      <trkpt lat="40.0568652246" lon="0.0741059985">
        <ele>6.39</ele>
        <time>2019-10-10T07:28:20Z</time>
      </trkpt>
      <trkpt lat="40.0568684097" lon="0.0743142888">
        <ele>6.39</ele>
        <time>2019-10-10T07:28:35Z</time>
      </trkpt>
      <trkpt lat="40.0568990875" lon="0.0744426996">
        <ele>6.39</ele>
        <time>2019-10-10T07:28:43Z</time>
      </trkpt>
      <trkpt lat="40.0569301005" lon="0.0744989421">
        <ele>6.39</ele>
        <time>2019-10-10T07:28:47Z</time>
      </trkpt>
      <trkpt lat="40.0569455232" lon="0.0746234134">
        <ele>6.39</ele>
        <time>2019-10-10T07:28:57Z</time>
      </trkpt>
      <trkpt lat="40.0569481216" lon="0.0748240761">
        <ele>6.39</ele>
        <time>2019-10-10T07:29:13Z</time>
      </trkpt>
      <trkpt lat="40.0569567550" lon="0.0749897026">
        <ele>6.39</ele>
        <time>2019-10-10T07:29:26Z</time>
      </trkpt>
      <trkpt lat="40.0569601078" lon="0.0751777086">
        <ele>6.39</ele>
        <time>2019-10-10T07:29:39Z</time>
      </trkpt>
      <trkpt lat="40.0569674000" lon="0.0752064586">
        <ele>5.42</ele>
        <time>2019-10-10T07:29:41Z</time>
      </trkpt>
      <trkpt lat="40.0569799729" lon="0.0752764475">
        <ele>5.42</ele>
        <time>2019-10-10T07:29:46Z</time>
      </trkpt>
      <trkpt lat="40.0569887739" lon="0.0753383897">
        <ele>5.42</ele>
        <time>2019-10-10T07:29:50Z</time>
      </trkpt>
      <trkpt lat="40.0570036098" lon="0.0755698979">
        <ele>4.94</ele>
        <time>2019-10-10T07:30:04Z</time>
      </trkpt>
      <trkpt lat="40.0569945574" lon="0.0755984802">
        <ele>5.42</ele>
        <time>2019-10-10T07:30:06Z</time>
      </trkpt>
      <trkpt lat="40.0569594372" lon="0.0757799484">
        <ele>4.94</ele>
        <time>2019-10-10T07:30:21Z</time>
      </trkpt>
      <trkpt lat="40.0570032746" lon="0.0759068504">
        <ele>4.94</ele>
        <time>2019-10-10T07:30:34Z</time>
      </trkpt>
      <trkpt lat="40.0570063759" lon="0.0759653561">
        <ele>4.94</ele>
        <time>2019-10-10T07:30:46Z</time>
      </trkpt>
      <trkpt lat="40.0570435915" lon="0.0761161465">
        <ele>4.94</ele>
        <time>2019-10-10T07:31:00Z</time>
      </trkpt>
      <trkpt lat="40.0570908654" lon="0.0763122831">
        <ele>4.94</ele>
        <time>2019-10-10T07:31:14Z</time>
      </trkpt>
      <trkpt lat="40.0571110658" lon="0.0763879716">
        <ele>4.46</ele>
        <time>2019-10-10T07:31:19Z</time>
      </trkpt>
      <trkpt lat="40.0571056176" lon="0.0766725373">
        <ele>4.46</ele>
        <time>2019-10-10T07:31:38Z</time>
      </trkpt>
      <trkpt lat="40.0571243092" lon="0.0769793987">
        <ele>4.46</ele>
        <time>2019-10-10T07:31:57Z</time>
      </trkpt>
      <trkpt lat="40.0571293384" lon="0.0771020260">
        <ele>3.98</ele>
        <time>2019-10-10T07:32:05Z</time>
      </trkpt>
      <trkpt lat="40.0571364630" lon="0.0771319494">
        <ele>3.98</ele>
        <time>2019-10-10T07:32:07Z</time>
      </trkpt>
      <trkpt lat="40.0571434200" lon="0.0772147626">
        <ele>3.98</ele>
        <time>2019-10-10T07:32:13Z</time>
      </trkpt>
      <trkpt lat="40.0571234711" lon="0.0774436723">
        <ele>3.98</ele>
        <time>2019-10-10T07:32:29Z</time>
      </trkpt>
      <trkpt lat="40.0571365468" lon="0.0775683951">
        <ele>3.50</ele>
        <time>2019-10-10T07:32:37Z</time>
      </trkpt>
      <trkpt lat="40.0571319368" lon="0.0776901841">
        <ele>3.50</ele>
        <time>2019-10-10T07:32:46Z</time>
      </trkpt>
      <trkpt lat="40.0571674760" lon="0.0779252965">
        <ele>3.50</ele>
        <time>2019-10-10T07:33:00Z</time>
      </trkpt>
      <trkpt lat="40.0571880117" lon="0.0780832116">
        <ele>3.50</ele>
        <time>2019-10-10T07:33:09Z</time>
      </trkpt>
      <trkpt lat="40.0571907777" lon="0.0782988779">
        <ele>3.50</ele>
        <time>2019-10-10T07:33:23Z</time>
      </trkpt>
      <trkpt lat="40.0572210364" lon="0.0785325654">
        <ele>3.50</ele>
        <time>2019-10-10T07:33:39Z</time>
      </trkpt>
      <trkpt lat="40.0572548155" lon="0.0787618943">
        <ele>3.50</ele>
        <time>2019-10-10T07:33:55Z</time>
      </trkpt>
      <trkpt lat="40.0572600961" lon="0.0789526664">
        <ele>3.50</ele>
        <time>2019-10-10T07:34:09Z</time>
      </trkpt>
      <trkpt lat="40.0572631136" lon="0.0792011060">
        <ele>3.50</ele>
        <time>2019-10-10T07:34:27Z</time>
      </trkpt>
      <trkpt lat="40.0572609343" lon="0.0792434346">
        <ele>3.50</ele>
        <time>2019-10-10T07:34:30Z</time>
      </trkpt>
      <trkpt lat="40.0572831463" lon="0.0794787146">
        <ele>3.50</ele>
        <time>2019-10-10T07:34:44Z</time>
      </trkpt>
      <trkpt lat="40.0572823919" lon="0.0797682256">
        <ele>3.50</ele>
        <time>2019-10-10T07:35:00Z</time>
      </trkpt>
      <trkpt lat="40.0572879240" lon="0.0799797848">
        <ele>3.50</ele>
        <time>2019-10-10T07:35:15Z</time>
      </trkpt>
      <trkpt lat="40.0573174283" lon="0.0801635161">
        <ele>3.50</ele>
        <time>2019-10-10T07:35:26Z</time>
      </trkpt>
      <trkpt lat="40.0573320966" lon="0.0803721417">
        <ele>3.50</ele>
        <time>2019-10-10T07:35:42Z</time>
      </trkpt>
      <trkpt lat="40.0573405623" lon="0.0805230998">
        <ele>3.50</ele>
        <time>2019-10-10T07:35:51Z</time>
      </trkpt>
      <trkpt lat="40.0573590025" lon="0.0807438791">
        <ele>3.50</ele>
        <time>2019-10-10T07:36:04Z</time>
      </trkpt>
      <trkpt lat="40.0573538058" lon="0.0808157120">
        <ele>3.50</ele>
        <time>2019-10-10T07:36:09Z</time>
      </trkpt>
      <trkpt lat="40.0573553145" lon="0.0808751397">
        <ele>3.50</ele>
        <time>2019-10-10T07:36:12Z</time>
      </trkpt>
      <trkpt lat="40.0573811308" lon="0.0811416004">
        <ele>3.02</ele>
        <time>2019-10-10T07:36:29Z</time>
      </trkpt>
      <trkpt lat="40.0574030913" lon="0.0813413411">
        <ele>3.02</ele>
        <time>2019-10-10T07:36:43Z</time>
      </trkpt>
      <trkpt lat="40.0573957991" lon="0.0814004336">
        <ele>3.02</ele>
        <time>2019-10-10T07:36:47Z</time>
      </trkpt>
      <trkpt lat="40.0574233755" lon="0.0816382281">
        <ele>3.02</ele>
        <time>2019-10-10T07:37:03Z</time>
      </trkpt>
      <trkpt lat="40.0574425701" lon="0.0818953011">
        <ele>3.02</ele>
        <time>2019-10-10T07:37:20Z</time>
      </trkpt>
      <trkpt lat="40.0574462581" lon="0.0821033400">
        <ele>3.02</ele>
        <time>2019-10-10T07:37:35Z</time>
      </trkpt>
      <trkpt lat="40.0574565679" lon="0.0823578145">
        <ele>3.02</ele>
        <time>2019-10-10T07:37:51Z</time>
      </trkpt>
      <trkpt lat="40.0574788637" lon="0.0824461598">
        <ele>2.54</ele>
        <time>2019-10-10T07:37:56Z</time>
      </trkpt>
      <trkpt lat="40.0575092062" lon="0.0826444756">
        <ele>3.50</ele>
        <time>2019-10-10T07:38:09Z</time>
      </trkpt>
      <trkpt lat="40.0575157441" lon="0.0826685317">
        <ele>3.50</ele>
        <time>2019-10-10T07:38:11Z</time>
      </trkpt>
      <trkpt lat="40.0575471763" lon="0.0828656740">
        <ele>3.50</ele>
        <time>2019-10-10T07:38:23Z</time>
      </trkpt>
      <trkpt lat="40.0575506128" lon="0.0829348247">
        <ele>3.50</ele>
        <time>2019-10-10T07:38:27Z</time>
      </trkpt>
      <trkpt lat="40.0575507805" lon="0.0829874631">
        <ele>3.50</ele>
        <time>2019-10-10T07:38:30Z</time>
      </trkpt>
      <trkpt lat="40.0575336814" lon="0.0831822585">
        <ele>3.50</ele>
        <time>2019-10-10T07:38:46Z</time>
      </trkpt>
      <trkpt lat="40.0575214438" lon="0.0831778999">
        <ele>3.50</ele>
        <time>2019-10-10T07:38:58Z</time>
      </trkpt>
      <trkpt lat="40.0575396325" lon="0.0831817556">
        <ele>3.50</ele>
        <time>2019-10-10T07:39:12Z</time>
      </trkpt>
      <trkpt lat="40.0575241260" lon="0.0832353160">
        <ele>3.50</ele>
        <time>2019-10-10T07:39:24Z</time>
      </trkpt>
      <trkpt lat="40.0575322565" lon="0.0833219849">
        <ele>3.50</ele>
        <time>2019-10-10T07:39:40Z</time>
      </trkpt>
      <trkpt lat="40.0575156603" lon="0.0832971744">
        <ele>3.50</ele>
        <time>2019-10-10T07:39:52Z</time>
      </trkpt>
      <trkpt lat="40.0575298257" lon="0.0833944883">
        <ele>3.50</ele>
        <time>2019-10-10T07:40:01Z</time>
      </trkpt>
      <trkpt lat="40.0574888382" lon="0.0834722724">
        <ele>3.50</ele>
        <time>2019-10-10T07:40:16Z</time>
      </trkpt>
      <trkpt lat="40.0574753433" lon="0.0835789740">
        <ele>3.50</ele>
        <time>2019-10-10T07:40:31Z</time>
      </trkpt>
      <trkpt lat="40.0574500300" lon="0.0836339593">
        <ele>2.54</ele>
        <time>2019-10-10T07:40:36Z</time>
      </trkpt>
      <trkpt lat="40.0573965535" lon="0.0836857595">
        <ele>1.58</ele>
        <time>2019-10-10T07:40:52Z</time>
      </trkpt>
      <trkpt lat="40.0573077053" lon="0.0837598555">
        <ele>1.10</ele>
        <time>2019-10-10T07:41:03Z</time>
      </trkpt>
      <trkpt lat="40.0572331902" lon="0.0837857556">
        <ele>0.62</ele>
        <time>2019-10-10T07:41:15Z</time>
      </trkpt>
      <trkpt lat="40.0571572501" lon="0.0837243162">
        <ele>0.62</ele>
        <time>2019-10-10T07:41:28Z</time>
      </trkpt>
      <trkpt lat="40.0571292546" lon="0.0836529024">
        <ele>0.14</ele>
        <time>2019-10-10T07:41:41Z</time>
      </trkpt>
      <trkpt lat="40.0572377164" lon="0.0838472787">
        <ele>0.14</ele>
        <time>2019-10-10T07:41:57Z</time>
      </trkpt>
      <trkpt lat="40.0572543964" lon="0.0839110650">
        <ele>0.14</ele>
        <time>2019-10-10T07:42:11Z</time>
      </trkpt>
      <trkpt lat="40.0572847389" lon="0.0839732587">
        <ele>0.14</ele>
        <time>2019-10-10T07:42:26Z</time>
      </trkpt>
      <trkpt lat="40.0573574100" lon="0.0840875879">
        <ele>0.14</ele>
        <time>2019-10-10T07:42:40Z</time>
      </trkpt>
      <trkpt lat="40.0574444141" lon="0.0842565671">
        <ele>0.14</ele>
        <time>2019-10-10T07:42:56Z</time>
      </trkpt>
      <trkpt lat="40.0574536342" lon="0.0843272265">
        <ele>0.14</ele>
        <time>2019-10-10T07:43:08Z</time>
      </trkpt>
      <trkpt lat="40.0575039256" lon="0.0844032504">
        <ele>0.14</ele>
        <time>2019-10-10T07:43:24Z</time>
      </trkpt>
      <trkpt lat="40.0574904308" lon="0.0843742490">
        <ele>0.14</ele>
        <time>2019-10-10T07:43:38Z</time>
      </trkpt>
      <trkpt lat="40.0574838091" lon="0.0843824632">
        <ele>0.14</ele>
        <time>2019-10-10T07:43:52Z</time>
      </trkpt>
      <trkpt lat="40.0575188454" lon="0.0844470877">
        <ele>0.14</ele>
        <time>2019-10-10T07:44:06Z</time>
      </trkpt>
      <trkpt lat="40.0575318374" lon="0.0844696350">
        <ele>0.14</ele>
        <time>2019-10-10T07:44:28Z</time>
      </trkpt>
      <trkpt lat="40.0575515348" lon="0.0844216906">
        <ele>0.14</ele>
        <time>2019-10-10T07:44:47Z</time>
      </trkpt>
      <trkpt lat="40.0575590786" lon="0.0843908451">
        <ele>0.14</ele>
        <time>2019-10-10T07:45:09Z</time>
      </trkpt>
      <trkpt lat="40.0576143153" lon="0.0845194235">
        <ele>0.14</ele>
        <time>2019-10-10T07:45:22Z</time>
      </trkpt>
      <trkpt lat="40.0576351862" lon="0.0845251232">
        <ele>0.14</ele>
        <time>2019-10-10T07:45:28Z</time>
      </trkpt>
      <trkpt lat="40.0576539617" lon="0.0845747441">
        <ele>-0.34</ele>
        <time>2019-10-10T07:45:39Z</time>
      </trkpt>
      <trkpt lat="40.0576242059" lon="0.0846964493">
        <ele>-0.34</ele>
        <time>2019-10-10T07:45:53Z</time>
      </trkpt>
      <trkpt lat="40.0576566439" lon="0.0848202500">
        <ele>1.10</ele>
        <time>2019-10-10T07:46:02Z</time>
      </trkpt>
      <trkpt lat="40.0576794427" lon="0.0849843677">
        <ele>1.10</ele>
        <time>2019-10-10T07:46:13Z</time>
      </trkpt>
      <trkpt lat="40.0576936919" lon="0.0850328151">
        <ele>1.10</ele>
        <time>2019-10-10T07:46:26Z</time>
      </trkpt>
      <trkpt lat="40.0577046722" lon="0.0850160513">
        <ele>1.10</ele>
        <time>2019-10-10T07:46:38Z</time>
      </trkpt>
      <trkpt lat="40.0577371940" lon="0.0849758182">
        <ele>1.10</ele>
        <time>2019-10-10T07:46:45Z</time>
      </trkpt>
      <trkpt lat="40.0578031596" lon="0.0851564482">
        <ele>1.58</ele>
        <time>2019-10-10T07:47:03Z</time>
      </trkpt>
      <trkpt lat="40.0578052551" lon="0.0852359086">
        <ele>1.58</ele>
        <time>2019-10-10T07:47:13Z</time>
      </trkpt>
      <trkpt lat="40.0578552950" lon="0.0855341367">
        <ele>1.58</ele>
        <time>2019-10-10T07:47:28Z</time>
      </trkpt>
      <trkpt lat="40.0578625035" lon="0.0855590310">
        <ele>1.58</ele>
        <time>2019-10-10T07:47:30Z</time>
      </trkpt>
      <trkpt lat="40.0578036625" lon="0.0857304409">
        <ele>1.58</ele>
        <time>2019-10-10T07:47:44Z</time>
      </trkpt>
      <trkpt lat="40.0577962864" lon="0.0857332908">
        <ele>2.06</ele>
        <time>2019-10-10T07:47:57Z</time>
      </trkpt>
      <trkpt lat="40.0577679556" lon="0.0857068878">
        <ele>2.06</ele>
        <time>2019-10-10T07:48:33Z</time>
      </trkpt>
      <trkpt lat="40.0577407144" lon="0.0857692491">
        <ele>2.06</ele>
        <time>2019-10-10T07:48:49Z</time>
      </trkpt>
      <trkpt lat="40.0577153172" lon="0.0858729333">
        <ele>2.54</ele>
        <time>2019-10-10T07:49:05Z</time>
      </trkpt>
      <trkpt lat="40.0575120561" lon="0.0860572513">
        <ele>3.02</ele>
        <time>2019-10-10T07:49:25Z</time>
      </trkpt>
      <trkpt lat="40.0574746728" lon="0.0860959757">
        <ele>3.50</ele>
        <time>2019-10-10T07:49:37Z</time>
      </trkpt>
      <trkpt lat="40.0574761815" lon="0.0860855822">
        <ele>3.50</ele>
        <time>2019-10-10T07:49:56Z</time>
      </trkpt>
      <trkpt lat="40.0574327633" lon="0.0862041023">
        <ele>3.98</ele>
        <time>2019-10-10T07:50:11Z</time>
      </trkpt>
      <trkpt lat="40.0574379601" lon="0.0862577464">
        <ele>3.98</ele>
        <time>2019-10-10T07:50:22Z</time>
      </trkpt>
      <trkpt lat="40.0574239623" lon="0.0862642843">
        <ele>3.98</ele>
        <time>2019-10-10T07:50:38Z</time>
      </trkpt>
      <trkpt lat="40.0574070308" lon="0.0862963032">
        <ele>3.98</ele>
        <time>2019-10-10T07:50:57Z</time>
      </trkpt>
      <trkpt lat="40.0573750958" lon="0.0863885041">
        <ele>4.46</ele>
        <time>2019-10-10T07:51:05Z</time>
      </trkpt>
      <trkpt lat="40.0573098846" lon="0.0865753368">
        <ele>4.94</ele>
        <time>2019-10-10T07:51:20Z</time>
      </trkpt>
      <trkpt lat="40.0572468527" lon="0.0867441483">
        <ele>5.42</ele>
        <time>2019-10-10T07:51:35Z</time>
      </trkpt>
      <trkpt lat="40.0571953878" lon="0.0868981238">
        <ele>5.91</ele>
        <time>2019-10-10T07:51:50Z</time>
      </trkpt>
      <trkpt lat="40.0571475271" lon="0.0870489143">
        <ele>6.39</ele>
        <time>2019-10-10T07:52:04Z</time>
      </trkpt>
      <trkpt lat="40.0570839923" lon="0.0872358307">
        <ele>6.87</ele>
        <time>2019-10-10T07:52:20Z</time>
      </trkpt>
      <trkpt lat="40.0570589304" lon="0.0873278640">
        <ele>7.35</ele>
        <time>2019-10-10T07:52:33Z</time>
      </trkpt>
      <trkpt lat="40.0570090581" lon="0.0875283591">
        <ele>7.83</ele>
        <time>2019-10-10T07:52:48Z</time>
      </trkpt>
      <trkpt lat="40.0569873489" lon="0.0876114238">
        <ele>7.83</ele>
        <time>2019-10-10T07:52:54Z</time>
      </trkpt>
      <trkpt lat="40.0569162704" lon="0.0878051296">
        <ele>8.79</ele>
        <time>2019-10-10T07:53:11Z</time>
      </trkpt>
      <trkpt lat="40.0568853412" lon="0.0879689120">
        <ele>9.27</ele>
        <time>2019-10-10T07:53:26Z</time>
      </trkpt>
      <trkpt lat="40.0568773784" lon="0.0880230591">
        <ele>9.75</ele>
        <time>2019-10-10T07:53:40Z</time>
      </trkpt>
      <trkpt lat="40.0568302721" lon="0.0881005079">
        <ele>9.75</ele>
        <time>2019-10-10T07:53:52Z</time>
      </trkpt>
      <trkpt lat="40.0568667334" lon="0.0881139189">
        <ele>9.75</ele>
        <time>2019-10-10T07:54:10Z</time>
      </trkpt>
      <trkpt lat="40.0568583515" lon="0.0880326983">
        <ele>9.75</ele>
        <time>2019-10-10T07:54:29Z</time>
      </trkpt>
      <trkpt lat="40.0568393245" lon="0.0880211312">
        <ele>9.75</ele>
        <time>2019-10-10T07:54:44Z</time>
      </trkpt>
      <trkpt lat="40.0568343792" lon="0.0880625378">
        <ele>9.75</ele>
        <time>2019-10-10T07:54:58Z</time>
      </trkpt>
      <trkpt lat="40.0568340439" lon="0.0880524796">
        <ele>9.75</ele>
        <time>2019-10-10T07:55:12Z</time>
      </trkpt>
      <trkpt lat="40.0567963254" lon="0.0882387254">
        <ele>9.75</ele>
        <time>2019-10-10T07:55:27Z</time>
      </trkpt>
      <trkpt lat="40.0567649771" lon="0.0884306710">
        <ele>10.23</ele>
        <time>2019-10-10T07:55:42Z</time>
      </trkpt>
      <trkpt lat="40.0567316171" lon="0.0887007359">
        <ele>10.23</ele>
        <time>2019-10-10T07:56:01Z</time>
      </trkpt>
      <trkpt lat="40.0567327067" lon="0.0888107903">
        <ele>10.23</ele>
        <time>2019-10-10T07:56:16Z</time>
      </trkpt>
      <trkpt lat="40.0567358080" lon="0.0889293943">
        <ele>10.23</ele>
        <time>2019-10-10T07:56:32Z</time>
      </trkpt>
      <trkpt lat="40.0567058008" lon="0.0890314858">
        <ele>10.23</ele>
        <time>2019-10-10T07:56:47Z</time>
      </trkpt>
      <trkpt lat="40.0566724408" lon="0.0891744811">
        <ele>10.23</ele>
        <time>2019-10-10T07:57:01Z</time>
      </trkpt>
      <trkpt lat="40.0566693395" lon="0.0891887303">
        <ele>10.23</ele>
        <time>2019-10-10T07:57:02Z</time>
      </trkpt>
      <trkpt lat="40.0566862710" lon="0.0893343240">
        <ele>10.23</ele>
        <time>2019-10-10T07:57:17Z</time>
      </trkpt>
      <trkpt lat="40.0566783082" lon="0.0895137805">
        <ele>10.71</ele>
        <time>2019-10-10T07:57:32Z</time>
      </trkpt>
      <trkpt lat="40.0566460378" lon="0.0896679237">
        <ele>10.71</ele>
        <time>2019-10-10T07:57:46Z</time>
      </trkpt>
      <trkpt lat="40.0566133484" lon="0.0899829157">
        <ele>10.71</ele>
        <time>2019-10-10T07:58:04Z</time>
      </trkpt>
      <trkpt lat="40.0566269271" lon="0.0900403317">
        <ele>10.71</ele>
        <time>2019-10-10T07:58:21Z</time>
      </trkpt>
      <trkpt lat="40.0566865224" lon="0.0902107358">
        <ele>10.71</ele>
        <time>2019-10-10T07:58:37Z</time>
      </trkpt>
      <trkpt lat="40.0567092374" lon="0.0902995840">
        <ele>10.71</ele>
        <time>2019-10-10T07:58:53Z</time>
      </trkpt>
      <trkpt lat="40.0567100756" lon="0.0903151743">
        <ele>10.71</ele>
        <time>2019-10-10T07:59:09Z</time>
      </trkpt>
      <trkpt lat="40.0567123387" lon="0.0903361291">
        <ele>10.71</ele>
        <time>2019-10-10T07:59:22Z</time>
      </trkpt>
      <trkpt lat="40.0567205530" lon="0.0905441679">
        <ele>10.71</ele>
        <time>2019-10-10T07:59:39Z</time>
      </trkpt>
      <trkpt lat="40.0567337964" lon="0.0906408112">
        <ele>10.71</ele>
        <time>2019-10-10T07:59:50Z</time>
      </trkpt>
      <trkpt lat="40.0567336287" lon="0.0907238759">
        <ele>10.71</ele>
        <time>2019-10-10T07:59:56Z</time>
      </trkpt>
      <trkpt lat="40.0567353051" lon="0.0907619298">
        <ele>10.71</ele>
        <time>2019-10-10T07:59:58Z</time>
      </trkpt>
      <trkpt lat="40.0567294378" lon="0.0908288173">
        <ele>10.71</ele>
        <time>2019-10-10T08:00:02Z</time>
      </trkpt>
      <trkpt lat="40.0567714311" lon="0.0911016483">
        <ele>9.75</ele>
        <time>2019-10-10T08:00:20Z</time>
      </trkpt>
      <trkpt lat="40.0568259973" lon="0.0913127884">
        <ele>9.75</ele>
        <time>2019-10-10T08:00:37Z</time>
      </trkpt>
      <trkpt lat="40.0568310264" lon="0.0914013013">
        <ele>9.75</ele>
        <time>2019-10-10T08:00:48Z</time>
      </trkpt>
      <trkpt lat="40.0568570942" lon="0.0915722083">
        <ele>9.75</ele>
        <time>2019-10-10T08:01:04Z</time>
      </trkpt>
      <trkpt lat="40.0568798929" lon="0.0916720368">
        <ele>9.75</ele>
        <time>2019-10-10T08:01:17Z</time>
      </trkpt>
      <trkpt lat="40.0569047872" lon="0.0918052252">
        <ele>9.27</ele>
        <time>2019-10-10T08:01:31Z</time>
      </trkpt>
      <trkpt lat="40.0569438469" lon="0.0918939058">
        <ele>9.27</ele>
        <time>2019-10-10T08:01:48Z</time>
      </trkpt>
      <trkpt lat="40.0570036937" lon="0.0920859352">
        <ele>9.27</ele>
        <time>2019-10-10T08:02:05Z</time>
      </trkpt>
      <trkpt lat="40.0570834056" lon="0.0922795571">
        <ele>9.27</ele>
        <time>2019-10-10T08:02:19Z</time>
      </trkpt>
      <trkpt lat="40.0571756903" lon="0.0924564153">
        <ele>9.27</ele>
        <time>2019-10-10T08:02:35Z</time>
      </trkpt>
      <trkpt lat="40.0572219584" lon="0.0925327744">
        <ele>9.27</ele>
        <time>2019-10-10T08:02:45Z</time>
      </trkpt>
      <trkpt lat="40.0573538896" lon="0.0930825435">
        <ele>9.27</ele>
        <time>2019-10-10T08:03:07Z</time>
      </trkpt>
      <trkpt lat="40.0574450847" lon="0.0931100361">
        <ele>8.79</ele>
        <time>2019-10-10T08:03:22Z</time>
      </trkpt>
      <trkpt lat="40.0574920233" lon="0.0932988804">
        <ele>8.79</ele>
        <time>2019-10-10T08:03:37Z</time>
      </trkpt>
      <trkpt lat="40.0575510319" lon="0.0935409497">
        <ele>8.79</ele>
        <time>2019-10-10T08:03:53Z</time>
      </trkpt>
      <trkpt lat="40.0576524530" lon="0.0937975198">
        <ele>8.79</ele>
        <time>2019-10-10T08:04:12Z</time>
      </trkpt>
      <trkpt lat="40.0577283092" lon="0.0940742064">
        <ele>8.79</ele>
        <time>2019-10-10T08:04:31Z</time>
      </trkpt>
      <trkpt lat="40.0577327516" lon="0.0940884557">
        <ele>8.79</ele>
        <time>2019-10-10T08:04:32Z</time>
      </trkpt>
      <trkpt lat="40.0577841327" lon="0.0943378173">
        <ele>9.27</ele>
        <time>2019-10-10T08:04:50Z</time>
      </trkpt>
      <trkpt lat="40.0578224380" lon="0.0945540704">
        <ele>9.27</ele>
        <time>2019-10-10T08:05:07Z</time>
      </trkpt>
      <trkpt lat="40.0578669459" lon="0.0947688986">
        <ele>8.79</ele>
        <time>2019-10-10T08:05:23Z</time>
      </trkpt>
      <trkpt lat="40.0578733161" lon="0.0948352832">
        <ele>8.79</ele>
        <time>2019-10-10T08:05:36Z</time>
      </trkpt>
      <trkpt lat="40.0579136331" lon="0.0949768536">
        <ele>8.79</ele>
        <time>2019-10-10T08:05:52Z</time>
      </trkpt>
      <trkpt lat="40.0579446461" lon="0.0951159932">
        <ele>8.79</ele>
        <time>2019-10-10T08:06:06Z</time>
      </trkpt>
      <trkpt lat="40.0579819456" lon="0.0953001436">
        <ele>7.83</ele>
        <time>2019-10-10T08:06:21Z</time>
      </trkpt>
      <trkpt lat="40.0580168143" lon="0.0954694580">
        <ele>7.83</ele>
        <time>2019-10-10T08:06:35Z</time>
      </trkpt>
      <trkpt lat="40.0580531079" lon="0.0956878904">
        <ele>7.83</ele>
        <time>2019-10-10T08:06:51Z</time>
      </trkpt>
      <trkpt lat="40.0580951013" lon="0.0959810894">
        <ele>7.35</ele>
        <time>2019-10-10T08:07:11Z</time>
      </trkpt>
      <trkpt lat="40.0580987055" lon="0.0960380863">
        <ele>7.35</ele>
        <time>2019-10-10T08:07:15Z</time>
      </trkpt>
      <trkpt lat="40.0581070874" lon="0.0961206481">
        <ele>7.35</ele>
        <time>2019-10-10T08:07:21Z</time>
      </trkpt>
      <trkpt lat="40.0581329875" lon="0.0963773858">
        <ele>7.35</ele>
        <time>2019-10-10T08:07:38Z</time>
      </trkpt>
      <trkpt lat="40.0581488293" lon="0.0965508912">
        <ele>7.35</ele>
        <time>2019-10-10T08:07:55Z</time>
      </trkpt>
      <trkpt lat="40.0581614021" lon="0.0966939703">
        <ele>7.35</ele>
        <time>2019-10-10T08:08:09Z</time>
      </trkpt>
      <trkpt lat="40.0581876375" lon="0.0969904382">
        <ele>7.35</ele>
        <time>2019-10-10T08:08:29Z</time>
      </trkpt>
      <trkpt lat="40.0582040660" lon="0.0971630216">
        <ele>8.79</ele>
        <time>2019-10-10T08:08:41Z</time>
      </trkpt>
      <trkpt lat="40.0582099333" lon="0.0973762572">
        <ele>8.79</ele>
        <time>2019-10-10T08:08:57Z</time>
      </trkpt>
      <trkpt lat="40.0582142919" lon="0.0974839646">
        <ele>8.79</ele>
        <time>2019-10-10T08:09:05Z</time>
      </trkpt>
      <trkpt lat="40.0582267810" lon="0.0976826157">
        <ele>7.83</ele>
        <time>2019-10-10T08:09:18Z</time>
      </trkpt>
      <trkpt lat="40.0582377613" lon="0.0979591347">
        <ele>7.83</ele>
        <time>2019-10-10T08:09:36Z</time>
      </trkpt>
      <trkpt lat="40.0582489930" lon="0.0981817581">
        <ele>7.83</ele>
        <time>2019-10-10T08:09:52Z</time>
      </trkpt>
      <trkpt lat="40.0582549442" lon="0.0984233245">
        <ele>7.83</ele>
        <time>2019-10-10T08:10:09Z</time>
      </trkpt>
      <trkpt lat="40.0582477357" lon="0.0986364763">
        <ele>7.83</ele>
        <time>2019-10-10T08:10:25Z</time>
      </trkpt>
      <trkpt lat="40.0582417008" lon="0.0987499673">
        <ele>7.35</ele>
        <time>2019-10-10T08:10:34Z</time>
      </trkpt>
      <trkpt lat="40.0582209975" lon="0.0988805573">
        <ele>7.35</ele>
        <time>2019-10-10T08:10:44Z</time>
      </trkpt>
      <trkpt lat="40.0582215004" lon="0.0990574155">
        <ele>7.35</ele>
        <time>2019-10-10T08:10:59Z</time>
      </trkpt>
      <trkpt lat="40.0582027249" lon="0.0992583297">
        <ele>7.35</ele>
        <time>2019-10-10T08:11:14Z</time>
      </trkpt>
      <trkpt lat="40.0581916608" lon="0.0995070208">
        <ele>6.87</ele>
        <time>2019-10-10T08:11:31Z</time>
      </trkpt>
      <trkpt lat="40.0581651740" lon="0.0997600704">
        <ele>6.87</ele>
        <time>2019-10-10T08:11:48Z</time>
      </trkpt>
      <trkpt lat="40.0581579655" lon="0.0998534448">
        <ele>8.31</ele>
        <time>2019-10-10T08:11:54Z</time>
      </trkpt>
      <trkpt lat="40.0581383519" lon="0.1000129525">
        <ele>8.31</ele>
        <time>2019-10-10T08:12:08Z</time>
      </trkpt>
      <trkpt lat="40.0581214204" lon="0.1001801714">
        <ele>8.31</ele>
        <time>2019-10-10T08:12:23Z</time>
      </trkpt>
      <trkpt lat="40.0580874737" lon="0.1004096679">
        <ele>8.31</ele>
        <time>2019-10-10T08:12:39Z</time>
      </trkpt>
      <trkpt lat="40.0580493361" lon="0.1006655674">
        <ele>8.31</ele>
        <time>2019-10-10T08:12:56Z</time>
      </trkpt>
      <trkpt lat="40.0580043253" lon="0.1009280048">
        <ele>8.31</ele>
        <time>2019-10-10T08:13:15Z</time>
      </trkpt>
      <trkpt lat="40.0579668581" lon="0.1011038572">
        <ele>8.31</ele>
        <time>2019-10-10T08:13:30Z</time>
      </trkpt>
      <trkpt lat="40.0579562131" lon="0.1011978183">
        <ele>8.31</ele>
        <time>2019-10-10T08:13:42Z</time>
      </trkpt>
      <trkpt lat="40.0579097774" lon="0.1014052704">
        <ele>8.31</ele>
        <time>2019-10-10T08:13:58Z</time>
      </trkpt>
      <trkpt lat="40.0578578096" lon="0.1016533747">
        <ele>8.31</ele>
        <time>2019-10-10T08:14:17Z</time>
      </trkpt>
      <trkpt lat="40.0578403752" lon="0.1017309912">
        <ele>8.31</ele>
        <time>2019-10-10T08:14:23Z</time>
      </trkpt>
      <trkpt lat="40.0577925984" lon="0.1019692048">
        <ele>8.31</ele>
        <time>2019-10-10T08:14:40Z</time>
      </trkpt>
      <trkpt lat="40.0577682909" lon="0.1020858809">
        <ele>8.31</ele>
        <time>2019-10-10T08:14:56Z</time>
      </trkpt>
      <trkpt lat="40.0577157363" lon="0.1023329794">
        <ele>8.31</ele>
        <time>2019-10-10T08:15:12Z</time>
      </trkpt>
      <trkpt lat="40.0576479267" lon="0.1026328001">
        <ele>8.31</ele>
        <time>2019-10-10T08:15:31Z</time>
      </trkpt>
      <trkpt lat="40.0575903431" lon="0.1028819103">
        <ele>8.31</ele>
        <time>2019-10-10T08:15:48Z</time>
      </trkpt>
      <trkpt lat="40.0575672090" lon="0.1029029489">
        <ele>8.31</ele>
        <time>2019-10-10T08:16:02Z</time>
      </trkpt>
      <trkpt lat="40.0575684663" lon="0.1028856821">
        <ele>8.31</ele>
        <time>2019-10-10T08:16:19Z</time>
      </trkpt>
      <trkpt lat="40.0575652812" lon="0.1029067207">
        <ele>8.31</ele>
        <time>2019-10-10T08:16:39Z</time>
      </trkpt>
      <trkpt lat="40.0575334299" lon="0.1031300146">
        <ele>8.31</ele>
        <time>2019-10-10T08:16:54Z</time>
      </trkpt>
      <trkpt lat="40.0575002376" lon="0.1033231337">
        <ele>9.27</ele>
        <time>2019-10-10T08:17:09Z</time>
      </trkpt>
      <trkpt lat="40.0574734993" lon="0.1034180168">
        <ele>9.75</ele>
        <time>2019-10-10T08:17:23Z</time>
      </trkpt>
      <trkpt lat="40.0574739184" lon="0.1034921128">
        <ele>9.75</ele>
        <time>2019-10-10T08:17:38Z</time>
      </trkpt>
      <trkpt lat="40.0574732479" lon="0.1035466790">
        <ele>9.75</ele>
        <time>2019-10-10T08:17:54Z</time>
      </trkpt>
      <trkpt lat="40.0574692246" lon="0.1036362816">
        <ele>9.75</ele>
        <time>2019-10-10T08:18:10Z</time>
      </trkpt>
      <trkpt lat="40.0574763492" lon="0.1037893351">
        <ele>9.75</ele>
        <time>2019-10-10T08:18:26Z</time>
      </trkpt>
      <trkpt lat="40.0574078690" lon="0.1040651836">
        <ele>9.75</ele>
        <time>2019-10-10T08:18:45Z</time>
      </trkpt>
      <trkpt lat="40.0573715754" lon="0.1041791774">
        <ele>9.75</ele>
        <time>2019-10-10T08:18:59Z</time>
      </trkpt>
      <trkpt lat="40.0573542248" lon="0.1042383537">
        <ele>8.79</ele>
        <time>2019-10-10T08:19:11Z</time>
      </trkpt>
      <trkpt lat="40.0573176797" lon="0.1043727994">
        <ele>8.79</ele>
        <time>2019-10-10T08:19:27Z</time>
      </trkpt>
      <trkpt lat="40.0573118124" lon="0.1044583786">
        <ele>8.79</ele>
        <time>2019-10-10T08:19:46Z</time>
      </trkpt>
      <trkpt lat="40.0573062804" lon="0.1045126934">
        <ele>8.79</ele>
        <time>2019-10-10T08:19:59Z</time>
      </trkpt>
      <trkpt lat="40.0572984014" lon="0.1046563592">
        <ele>8.31</ele>
        <time>2019-10-10T08:20:13Z</time>
      </trkpt>
      <trkpt lat="40.0572868343" lon="0.1047970913">
        <ele>8.31</ele>
        <time>2019-10-10T08:20:27Z</time>
      </trkpt>
      <trkpt lat="40.0572852418" lon="0.1048913877">
        <ele>8.31</ele>
        <time>2019-10-10T08:20:45Z</time>
      </trkpt>
      <trkpt lat="40.0572801288" lon="0.1051444374">
        <ele>7.35</ele>
        <time>2019-10-10T08:21:04Z</time>
      </trkpt>
      <trkpt lat="40.0572854094" lon="0.1054146700">
        <ele>8.79</ele>
        <time>2019-10-10T08:21:23Z</time>
      </trkpt>
      <trkpt lat="40.0572947972" lon="0.1055302564">
        <ele>8.79</ele>
        <time>2019-10-10T08:21:39Z</time>
      </trkpt>
      <trkpt lat="40.0573018380" lon="0.1057652850">
        <ele>8.79</ele>
        <time>2019-10-10T08:21:58Z</time>
      </trkpt>
      <trkpt lat="40.0572757702" lon="0.1057692245">
        <ele>9.27</ele>
        <time>2019-10-10T08:22:21Z</time>
      </trkpt>
      <trkpt lat="40.0571895204" lon="0.1057854854">
        <ele>10.23</ele>
        <time>2019-10-10T08:22:36Z</time>
      </trkpt>
      <trkpt lat="40.0571493711" lon="0.1058020815">
        <ele>10.71</ele>
        <time>2019-10-10T08:22:53Z</time>
      </trkpt>
      <trkpt lat="40.0570886023" lon="0.1058063563">
        <ele>11.19</ele>
        <time>2019-10-10T08:23:13Z</time>
      </trkpt>
      <trkpt lat="40.0569671486" lon="0.1058271434">
        <ele>11.19</ele>
        <time>2019-10-10T08:23:30Z</time>
      </trkpt>
      <trkpt lat="40.0569161028" lon="0.1058939472">
        <ele>11.67</ele>
        <time>2019-10-10T08:23:43Z</time>
      </trkpt>
      <trkpt lat="40.0568919629" lon="0.1059412211">
        <ele>11.67</ele>
        <time>2019-10-10T08:23:48Z</time>
      </trkpt>
      <trkpt lat="40.0568481255" lon="0.1060202625">
        <ele>11.67</ele>
        <time>2019-10-10T08:24:02Z</time>
      </trkpt>
      <trkpt lat="40.0567973312" lon="0.1060491800">
        <ele>11.67</ele>
        <time>2019-10-10T08:24:19Z</time>
      </trkpt>
      <trkpt lat="40.0568236504" lon="0.1060198434">
        <ele>11.67</ele>
        <time>2019-10-10T08:24:38Z</time>
      </trkpt>
      <trkpt lat="40.0568974949" lon="0.1059211884">
        <ele>11.67</ele>
        <time>2019-10-10T08:24:53Z</time>
      </trkpt>
      <trkpt lat="40.0569759496" lon="0.1058189292">
        <ele>11.67</ele>
        <time>2019-10-10T08:25:07Z</time>
      </trkpt>
      <trkpt lat="40.0570378080" lon="0.1057787798">
        <ele>11.67</ele>
        <time>2019-10-10T08:25:19Z</time>
      </trkpt>
      <trkpt lat="40.0570601039" lon="0.1057799533">
        <ele>10.71</ele>
        <time>2019-10-10T08:25:22Z</time>
      </trkpt>
      <trkpt lat="40.0571346190" lon="0.1057655364">
        <ele>10.71</ele>
        <time>2019-10-10T08:25:34Z</time>
      </trkpt>
      <trkpt lat="40.0571934599" lon="0.1057475153">
        <ele>10.71</ele>
        <time>2019-10-10T08:25:48Z</time>
      </trkpt>
      <trkpt lat="40.0572149176" lon="0.1057392173">
        <ele>10.71</ele>
        <time>2019-10-10T08:26:02Z</time>
      </trkpt>
      <trkpt lat="40.0572633650" lon="0.1057390496">
        <ele>9.75</ele>
        <time>2019-10-10T08:26:17Z</time>
      </trkpt>
      <trkpt lat="40.0573056936" lon="0.1057494432">
        <ele>9.27</ele>
        <time>2019-10-10T08:26:32Z</time>
      </trkpt>
      <trkpt lat="40.0573061965" lon="0.1057465933">
        <ele>9.27</ele>
        <time>2019-10-10T08:26:48Z</time>
      </trkpt>
      <trkpt lat="40.0573064480" lon="0.1057804562">
        <ele>9.27</ele>
        <time>2019-10-10T08:27:07Z</time>
      </trkpt>
      <trkpt lat="40.0573166739" lon="0.1058026683">
        <ele>9.27</ele>
        <time>2019-10-10T08:27:28Z</time>
      </trkpt>
      <trkpt lat="40.0573153328" lon="0.1058770157">
        <ele>9.27</ele>
        <time>2019-10-10T08:27:45Z</time>
      </trkpt>
      <trkpt lat="40.0573551469" lon="0.1058091223">
        <ele>9.27</ele>
        <time>2019-10-10T08:28:00Z</time>
      </trkpt>
      <trkpt lat="40.0573135726" lon="0.1058356930">
        <ele>9.27</ele>
        <time>2019-10-10T08:28:21Z</time>
      </trkpt>
      <trkpt lat="40.0573150814" lon="0.1058931090">
        <ele>9.27</ele>
        <time>2019-10-10T08:28:37Z</time>
      </trkpt>
      <trkpt lat="40.0573411491" lon="0.1059827115">
        <ele>9.27</ele>
        <time>2019-10-10T08:28:53Z</time>
      </trkpt>
      <trkpt lat="40.0573738385" lon="0.1061153132">
        <ele>9.27</ele>
        <time>2019-10-10T08:29:10Z</time>
      </trkpt>
      <trkpt lat="40.0573991518" lon="0.1062028203">
        <ele>9.27</ele>
        <time>2019-10-10T08:29:29Z</time>
      </trkpt>
      <trkpt lat="40.0574543886" lon="0.1063474081">
        <ele>9.27</ele>
        <time>2019-10-10T08:29:45Z</time>
      </trkpt>
      <trkpt lat="40.0574739184" lon="0.1065192372">
        <ele>9.27</ele>
        <time>2019-10-10T08:30:01Z</time>
      </trkpt>
      <trkpt lat="40.0574613456" lon="0.1066807564">
        <ele>9.27</ele>
        <time>2019-10-10T08:30:16Z</time>
      </trkpt>
      <trkpt lat="40.0574437436" lon="0.1066878811">
        <ele>9.27</ele>
        <time>2019-10-10T08:30:19Z</time>
      </trkpt>
      <trkpt lat="40.0573651213" lon="0.1066986937">
        <ele>8.79</ele>
        <time>2019-10-10T08:30:34Z</time>
      </trkpt>
      <trkpt lat="40.0573641155" lon="0.1066814270">
        <ele>8.79</ele>
        <time>2019-10-10T08:30:52Z</time>
      </trkpt>
      <trkpt lat="40.0573673006" lon="0.1066691056">
        <ele>8.31</ele>
        <time>2019-10-10T08:31:15Z</time>
      </trkpt>
      <trkpt lat="40.0573689770" lon="0.1066857856">
        <ele>8.31</ele>
        <time>2019-10-10T08:31:39Z</time>
      </trkpt>
      <trkpt lat="40.0573582482" lon="0.1067879610">
        <ele>8.31</ele>
        <time>2019-10-10T08:32:00Z</time>
      </trkpt>
      <trkpt lat="40.0573730003" lon="0.1068201475">
        <ele>7.83</ele>
        <time>2019-10-10T08:32:17Z</time>
      </trkpt>
      <trkpt lat="40.0573655404" lon="0.1067625638">
        <ele>7.83</ele>
        <time>2019-10-10T08:32:33Z</time>
      </trkpt>
      <trkpt lat="40.0573714916" lon="0.1067447942">
        <ele>7.83</ele>
        <time>2019-10-10T08:33:03Z</time>
      </trkpt>
      <trkpt lat="40.0573440827" lon="0.1067473926">
        <ele>7.83</ele>
        <time>2019-10-10T08:33:18Z</time>
      </trkpt>
      <trkpt lat="40.0573566556" lon="0.1067648269">
        <ele>7.83</ele>
        <time>2019-10-10T08:33:37Z</time>
      </trkpt>
      <trkpt lat="40.0574291591" lon="0.1068540104">
        <ele>7.83</ele>
        <time>2019-10-10T08:33:51Z</time>
      </trkpt>
      <trkpt lat="40.0574351102" lon="0.1068615541">
        <ele>7.83</ele>
        <time>2019-10-10T08:33:52Z</time>
      </trkpt>
      <trkpt lat="40.0574980583" lon="0.1069361530">
        <ele>9.27</ele>
        <time>2019-10-10T08:34:08Z</time>
      </trkpt>
      <trkpt lat="40.0575320888" lon="0.1069348957">
        <ele>9.75</ele>
        <time>2019-10-10T08:34:23Z</time>
      </trkpt>
      <trkpt lat="40.0574853178" lon="0.1069387514">
        <ele>9.75</ele>
        <time>2019-10-10T08:34:44Z</time>
      </trkpt>
      <trkpt lat="40.0575335138" lon="0.1068858616">
        <ele>9.75</ele>
        <time>2019-10-10T08:35:21Z</time>
      </trkpt>
      <trkpt lat="40.0575726572" lon="0.1069057267">
        <ele>9.75</ele>
        <time>2019-10-10T08:35:49Z</time>
      </trkpt>
      <trkpt lat="40.0575619284" lon="0.1069929823">
        <ele>10.71</ele>
        <time>2019-10-10T08:36:04Z</time>
      </trkpt>
      <trkpt lat="40.0576519500" lon="0.1072370633">
        <ele>10.71</ele>
        <time>2019-10-10T08:36:23Z</time>
      </trkpt>
      <trkpt lat="40.0577227771" lon="0.1074285898">
        <ele>10.71</ele>
        <time>2019-10-10T08:36:38Z</time>
      </trkpt>
      <trkpt lat="40.0578058418" lon="0.1076385565">
        <ele>10.71</ele>
        <time>2019-10-10T08:36:55Z</time>
      </trkpt>
      <trkpt lat="40.0578103680" lon="0.1076522190">
        <ele>10.71</ele>
        <time>2019-10-10T08:36:56Z</time>
      </trkpt>
      <trkpt lat="40.0579112023" lon="0.1079198532">
        <ele>10.71</ele>
        <time>2019-10-10T08:37:15Z</time>
      </trkpt>
      <trkpt lat="40.0579416286" lon="0.1081472542">
        <ele>10.71</ele>
        <time>2019-10-10T08:37:31Z</time>
      </trkpt>
      <trkpt lat="40.0579592306" lon="0.1082105376">
        <ele>10.71</ele>
        <time>2019-10-10T08:37:54Z</time>
      </trkpt>
      <trkpt lat="40.0580244418" lon="0.1082374435">
        <ele>10.71</ele>
        <time>2019-10-10T08:38:17Z</time>
      </trkpt>
      <trkpt lat="40.0580792595" lon="0.1082872320">
        <ele>10.71</ele>
        <time>2019-10-10T08:38:33Z</time>
      </trkpt>
      <trkpt lat="40.0581386033" lon="0.1083978731">
        <ele>10.71</ele>
        <time>2019-10-10T08:38:51Z</time>
      </trkpt>
      <trkpt lat="40.0582280383" lon="0.1085442211">
        <ele>10.71</ele>
        <time>2019-10-10T08:39:09Z</time>
      </trkpt>
      <trkpt lat="40.0582313910" lon="0.1086417865">
        <ele>10.71</ele>
        <time>2019-10-10T08:39:24Z</time>
      </trkpt>
      <trkpt lat="40.0582831074" lon="0.1086946763">
        <ele>10.71</ele>
        <time>2019-10-10T08:39:43Z</time>
      </trkpt>
      <trkpt lat="40.0584011246" lon="0.1088607218">
        <ele>10.71</ele>
        <time>2019-10-10T08:39:59Z</time>
      </trkpt>
      <trkpt lat="40.0584390108" lon="0.1089109294">
        <ele>10.71</ele>
        <time>2019-10-10T08:40:04Z</time>
      </trkpt>
      <trkpt lat="40.0585718639" lon="0.1090832613">
        <ele>10.71</ele>
        <time>2019-10-10T08:40:21Z</time>
      </trkpt>
      <trkpt lat="40.0586986821" lon="0.1092731953">
        <ele>10.71</ele>
        <time>2019-10-10T08:40:37Z</time>
      </trkpt>
      <trkpt lat="40.0588084012" lon="0.1094497181">
        <ele>9.75</ele>
        <time>2019-10-10T08:40:51Z</time>
      </trkpt>
      <trkpt lat="40.0589381531" lon="0.1096888538">
        <ele>9.27</ele>
        <time>2019-10-10T08:41:11Z</time>
      </trkpt>
      <trkpt lat="40.0589762907" lon="0.1097286679">
        <ele>9.27</ele>
        <time>2019-10-10T08:41:25Z</time>
      </trkpt>
      <trkpt lat="40.0590016879" lon="0.1097575855">
        <ele>9.27</ele>
        <time>2019-10-10T08:41:44Z</time>
      </trkpt>
      <trkpt lat="40.0591420010" lon="0.1098875050">
        <ele>8.79</ele>
        <time>2019-10-10T08:42:00Z</time>
      </trkpt>
      <trkpt lat="40.0591344573" lon="0.1099115610">
        <ele>8.79</ele>
        <time>2019-10-10T08:42:12Z</time>
      </trkpt>
      <trkpt lat="40.0591411628" lon="0.1099159196">
        <ele>8.79</ele>
        <time>2019-10-10T08:42:25Z</time>
      </trkpt>
      <trkpt lat="40.0592147559" lon="0.1099196915">
        <ele>8.79</ele>
        <time>2019-10-10T08:42:42Z</time>
      </trkpt>
      <trkpt lat="40.0592462718" lon="0.1099472679">
        <ele>8.79</ele>
        <time>2019-10-10T08:42:47Z</time>
      </trkpt>
      <trkpt lat="40.0593072083" lon="0.1100165863">
        <ele>8.79</ele>
        <time>2019-10-10T08:43:03Z</time>
      </trkpt>
      <trkpt lat="40.0593964756" lon="0.1101350226">
        <ele>8.79</ele>
        <time>2019-10-10T08:43:18Z</time>
      </trkpt>
      <trkpt lat="40.0595469307" lon="0.1102874894">
        <ele>8.31</ele>
        <time>2019-10-10T08:43:35Z</time>
      </trkpt>
      <trkpt lat="40.0596729945" lon="0.1104435604">
        <ele>8.31</ele>
        <time>2019-10-10T08:43:51Z</time>
      </trkpt>
      <trkpt lat="40.0598165765" lon="0.1106088515">
        <ele>8.31</ele>
        <time>2019-10-10T08:44:08Z</time>
      </trkpt>
      <trkpt lat="40.0599380303" lon="0.1107505895">
        <ele>9.27</ele>
        <time>2019-10-10T08:44:23Z</time>
      </trkpt>
      <trkpt lat="40.0600595679" lon="0.1109213289">
        <ele>9.75</ele>
        <time>2019-10-10T08:44:40Z</time>
      </trkpt>
      <trkpt lat="40.0602421258" lon="0.1111543458">
        <ele>9.75</ele>
        <time>2019-10-10T08:45:01Z</time>
      </trkpt>
      <trkpt lat="40.0603597239" lon="0.1113449503">
        <ele>9.75</ele>
        <time>2019-10-10T08:45:17Z</time>
      </trkpt>
      <trkpt lat="40.0604210794" lon="0.1114452817">
        <ele>9.75</ele>
        <time>2019-10-10T08:45:25Z</time>
      </trkpt>
      <trkpt lat="40.0605392642" lon="0.1115964074">
        <ele>9.75</ele>
        <time>2019-10-10T08:45:45Z</time>
      </trkpt>
      <trkpt lat="40.0605915673" lon="0.1116926316">
        <ele>8.31</ele>
        <time>2019-10-10T08:45:54Z</time>
      </trkpt>
      <trkpt lat="40.0606799126" lon="0.1118378900">
        <ele>8.31</ele>
        <time>2019-10-10T08:46:08Z</time>
      </trkpt>
      <trkpt lat="40.0607294496" lon="0.1119481120">
        <ele>8.31</ele>
        <time>2019-10-10T08:46:24Z</time>
      </trkpt>
      <trkpt lat="40.0607436989" lon="0.1119348686">
        <ele>9.27</ele>
        <time>2019-10-10T08:46:45Z</time>
      </trkpt>
      <trkpt lat="40.0608270988" lon="0.1120566577">
        <ele>9.27</ele>
        <time>2019-10-10T08:47:00Z</time>
      </trkpt>
      <trkpt lat="40.0609776378" lon="0.1122981403">
        <ele>9.27</ele>
        <time>2019-10-10T08:47:20Z</time>
      </trkpt>
      <trkpt lat="40.0611064676" lon="0.1125433110">
        <ele>9.27</ele>
        <time>2019-10-10T08:47:39Z</time>
      </trkpt>
      <trkpt lat="40.0612201262" lon="0.1127630845">
        <ele>9.27</ele>
        <time>2019-10-10T08:47:56Z</time>
      </trkpt>
      <trkpt lat="40.0613394845" lon="0.1130029745">
        <ele>9.27</ele>
        <time>2019-10-10T08:48:14Z</time>
      </trkpt>
      <trkpt lat="40.0614474434" lon="0.1132495701">
        <ele>7.83</ele>
        <time>2019-10-10T08:48:33Z</time>
      </trkpt>
      <trkpt lat="40.0615490321" lon="0.1134623028">
        <ele>7.83</ele>
        <time>2019-10-10T08:48:50Z</time>
      </trkpt>
      <trkpt lat="40.0616297498" lon="0.1136482134">
        <ele>7.83</ele>
        <time>2019-10-10T08:49:05Z</time>
      </trkpt>
      <trkpt lat="40.0616838969" lon="0.1137306914">
        <ele>7.83</ele>
        <time>2019-10-10T08:49:19Z</time>
      </trkpt>
      <trkpt lat="40.0617622677" lon="0.1140123233">
        <ele>7.83</ele>
        <time>2019-10-10T08:49:38Z</time>
      </trkpt>
      <trkpt lat="40.0618605874" lon="0.1142664626">
        <ele>7.83</ele>
        <time>2019-10-10T08:49:57Z</time>
      </trkpt>
      <trkpt lat="40.0619522855" lon="0.1144850627">
        <ele>7.83</ele>
        <time>2019-10-10T08:50:14Z</time>
      </trkpt>
      <trkpt lat="40.0620630942" lon="0.1147542894">
        <ele>7.83</ele>
        <time>2019-10-10T08:50:34Z</time>
      </trkpt>
      <trkpt lat="40.0621609949" lon="0.1149894856">
        <ele>7.83</ele>
        <time>2019-10-10T08:50:51Z</time>
      </trkpt>
      <trkpt lat="40.0622640923" lon="0.1152559463">
        <ele>7.83</ele>
        <time>2019-10-10T08:51:09Z</time>
      </trkpt>
      <trkpt lat="40.0623523537" lon="0.1154498197">
        <ele>7.83</ele>
        <time>2019-10-10T08:51:24Z</time>
      </trkpt>
      <trkpt lat="40.0623899885" lon="0.1156048011">
        <ele>7.83</ele>
        <time>2019-10-10T08:51:42Z</time>
      </trkpt>
      <trkpt lat="40.0623524375" lon="0.1156229060">
        <ele>7.83</ele>
        <time>2019-10-10T08:52:06Z</time>
      </trkpt>
      <trkpt lat="40.0623797625" lon="0.1156622171">
        <ele>7.83</ele>
        <time>2019-10-10T08:52:21Z</time>
      </trkpt>
      <trkpt lat="40.0624346640" lon="0.1157262549">
        <ele>7.83</ele>
        <time>2019-10-10T08:52:35Z</time>
      </trkpt>
      <trkpt lat="40.0625181478" lon="0.1159044541">
        <ele>7.83</ele>
        <time>2019-10-10T08:52:51Z</time>
      </trkpt>
      <trkpt lat="40.0626046490" lon="0.1161277480">
        <ele>7.83</ele>
        <time>2019-10-10T08:53:09Z</time>
      </trkpt>
      <trkpt lat="40.0626571197" lon="0.1162383892">
        <ele>7.83</ele>
        <time>2019-10-10T08:53:21Z</time>
      </trkpt>
      <trkpt lat="40.0627151225" lon="0.1163988188">
        <ele>7.83</ele>
        <time>2019-10-10T08:53:35Z</time>
      </trkpt>
      <trkpt lat="40.0628115144" lon="0.1166281477">
        <ele>7.35</ele>
        <time>2019-10-10T08:53:53Z</time>
      </trkpt>
      <trkpt lat="40.0628592074" lon="0.1167153195">
        <ele>7.35</ele>
        <time>2019-10-10T08:54:07Z</time>
      </trkpt>
      <trkpt lat="40.0629162882" lon="0.1168734021">
        <ele>7.35</ele>
        <time>2019-10-10T08:54:21Z</time>
      </trkpt>
      <trkpt lat="40.0629488938" lon="0.1169729792">
        <ele>7.35</ele>
        <time>2019-10-10T08:54:29Z</time>
      </trkpt>
      <trkpt lat="40.0630348083" lon="0.1171301398">
        <ele>7.35</ele>
        <time>2019-10-10T08:54:42Z</time>
      </trkpt>
      <trkpt lat="40.0631349720" lon="0.1173836924">
        <ele>7.35</ele>
        <time>2019-10-10T08:55:00Z</time>
      </trkpt>
      <trkpt lat="40.0632263348" lon="0.1176095009">
        <ele>7.35</ele>
        <time>2019-10-10T08:55:17Z</time>
      </trkpt>
      <trkpt lat="40.0632332079" lon="0.1176358201">
        <ele>7.35</ele>
        <time>2019-10-10T08:55:19Z</time>
      </trkpt>
      <trkpt lat="40.0633149315" lon="0.1178553421">
        <ele>7.35</ele>
        <time>2019-10-10T08:55:36Z</time>
      </trkpt>
      <trkpt lat="40.0633738562" lon="0.1180195436">
        <ele>7.35</ele>
        <time>2019-10-10T08:55:51Z</time>
      </trkpt>
      <trkpt lat="40.0634505507" lon="0.1182357967">
        <ele>7.35</ele>
        <time>2019-10-10T08:56:09Z</time>
      </trkpt>
      <trkpt lat="40.0635562465" lon="0.1184833981">
        <ele>7.35</ele>
        <time>2019-10-10T08:56:28Z</time>
      </trkpt>
      <trkpt lat="40.0636042748" lon="0.1185995713">
        <ele>7.35</ele>
        <time>2019-10-10T08:56:43Z</time>
      </trkpt>
      <trkpt lat="40.0636375509" lon="0.1187205222">
        <ele>7.35</ele>
        <time>2019-10-10T08:56:56Z</time>
      </trkpt>
      <trkpt lat="40.0637075398" lon="0.1188988890">
        <ele>7.35</ele>
        <time>2019-10-10T08:57:13Z</time>
      </trkpt>
      <trkpt lat="40.0637878384" lon="0.1190366875">
        <ele>6.87</ele>
        <time>2019-10-10T08:57:29Z</time>
      </trkpt>
      <trkpt lat="40.0638429914" lon="0.1191745698">
        <ele>6.87</ele>
        <time>2019-10-10T08:57:42Z</time>
      </trkpt>
      <trkpt lat="40.0639214460" lon="0.1193775795">
        <ele>6.87</ele>
        <time>2019-10-10T08:57:58Z</time>
      </trkpt>
      <trkpt lat="40.0640087854" lon="0.1196150389">
        <ele>6.87</ele>
        <time>2019-10-10T08:58:17Z</time>
      </trkpt>
      <trkpt lat="40.0641071051" lon="0.1198421046">
        <ele>6.87</ele>
        <time>2019-10-10T08:58:34Z</time>
      </trkpt>
      <trkpt lat="40.0641772617" lon="0.1200004388">
        <ele>6.87</ele>
        <time>2019-10-10T08:58:48Z</time>
      </trkpt>
      <trkpt lat="40.0641855597" lon="0.1200120058">
        <ele>6.87</ele>
        <time>2019-10-10T08:58:49Z</time>
      </trkpt>
      <trkpt lat="40.0642812811" lon="0.1202006824">
        <ele>6.87</ele>
        <time>2019-10-10T08:59:05Z</time>
      </trkpt>
      <trkpt lat="40.0643737335" lon="0.1204244792">
        <ele>6.39</ele>
        <time>2019-10-10T08:59:22Z</time>
      </trkpt>
      <trkpt lat="40.0644523557" lon="0.1206594240">
        <ele>6.39</ele>
        <time>2019-10-10T08:59:40Z</time>
      </trkpt>
      <trkpt lat="40.0645309780" lon="0.1208756771">
        <ele>6.39</ele>
        <time>2019-10-10T08:59:57Z</time>
      </trkpt>
      <trkpt lat="40.0646067504" lon="0.1210542116">
        <ele>6.39</ele>
        <time>2019-10-10T09:00:13Z</time>
      </trkpt>
      <trkpt lat="40.0646443013" lon="0.1211549621">
        <ele>6.39</ele>
        <time>2019-10-10T09:00:21Z</time>
      </trkpt>
      <trkpt lat="40.0647192355" lon="0.1213325746">
        <ele>6.39</ele>
        <time>2019-10-10T09:00:37Z</time>
      </trkpt>
      <trkpt lat="40.0647898111" lon="0.1214946806">
        <ele>5.91</ele>
        <time>2019-10-10T09:00:53Z</time>
      </trkpt>
      <trkpt lat="40.0648702774" lon="0.1217258535">
        <ele>5.91</ele>
        <time>2019-10-10T09:01:11Z</time>
      </trkpt>
      <trkpt lat="40.0649745483" lon="0.1219835132">
        <ele>5.91</ele>
        <time>2019-10-10T09:01:31Z</time>
      </trkpt>
      <trkpt lat="40.0650876202" lon="0.1222372334">
        <ele>5.91</ele>
        <time>2019-10-10T09:01:50Z</time>
      </trkpt>
      <trkpt lat="40.0651618838" lon="0.1223809831">
        <ele>5.91</ele>
        <time>2019-10-10T09:02:03Z</time>
      </trkpt>
      <trkpt lat="40.0652558450" lon="0.1225984097">
        <ele>6.87</ele>
        <time>2019-10-10T09:02:21Z</time>
      </trkpt>
      <trkpt lat="40.0653164461" lon="0.1227237191">
        <ele>6.87</ele>
        <time>2019-10-10T09:02:35Z</time>
      </trkpt>
      <trkpt lat="40.0653655641" lon="0.1228233799">
        <ele>6.87</ele>
        <time>2019-10-10T09:02:47Z</time>
      </trkpt>
      <trkpt lat="40.0654351339" lon="0.1229654532">
        <ele>6.39</ele>
        <time>2019-10-10T09:03:03Z</time>
      </trkpt>
      <trkpt lat="40.0654779654" lon="0.1230385434">
        <ele>6.39</ele>
        <time>2019-10-10T09:03:10Z</time>
      </trkpt>
      <trkpt lat="40.0656136684" lon="0.1232711412">
        <ele>6.39</ele>
        <time>2019-10-10T09:03:30Z</time>
      </trkpt>
      <trkpt lat="40.0657358766" lon="0.1234796830">
        <ele>6.39</ele>
        <time>2019-10-10T09:03:48Z</time>
      </trkpt>
      <trkpt lat="40.0657793786" lon="0.1235459000">
        <ele>6.39</ele>
        <time>2019-10-10T09:03:54Z</time>
      </trkpt>
      <trkpt lat="40.0658162590" lon="0.1236050762">
        <ele>6.87</ele>
        <time>2019-10-10T09:03:59Z</time>
      </trkpt>
      <trkpt lat="40.0659403112" lon="0.1238158811">
        <ele>6.39</ele>
        <time>2019-10-10T09:04:17Z</time>
      </trkpt>
      <trkpt lat="40.0660108030" lon="0.1239329763">
        <ele>6.39</ele>
        <time>2019-10-10T09:04:30Z</time>
      </trkpt>
      <trkpt lat="40.0661258865" lon="0.1240981836">
        <ele>6.39</ele>
        <time>2019-10-10T09:04:46Z</time>
      </trkpt>
      <trkpt lat="40.0662051793" lon="0.1242174581">
        <ele>6.39</ele>
        <time>2019-10-10T09:05:02Z</time>
      </trkpt>
      <trkpt lat="40.0662892498" lon="0.1243317034">
        <ele>5.91</ele>
        <time>2019-10-10T09:05:15Z</time>
      </trkpt>
      <trkpt lat="40.0663428940" lon="0.1245195419">
        <ele>5.91</ele>
        <time>2019-10-10T09:05:32Z</time>
      </trkpt>
      <trkpt lat="40.0663608313" lon="0.1246051211">
        <ele>5.91</ele>
        <time>2019-10-10T09:05:46Z</time>
      </trkpt>
      <trkpt lat="40.0663712248" lon="0.1247156784">
        <ele>6.87</ele>
        <time>2019-10-10T09:05:58Z</time>
      </trkpt>
      <trkpt lat="40.0663609989" lon="0.1248386409">
        <ele>8.79</ele>
        <time>2019-10-10T09:06:10Z</time>
      </trkpt>
      <trkpt lat="40.0663546287" lon="0.1248838194">
        <ele>9.75</ele>
        <time>2019-10-10T09:06:24Z</time>
      </trkpt>
      <trkpt lat="40.0663240347" lon="0.1249496173">
        <ele>10.23</ele>
        <time>2019-10-10T09:06:36Z</time>
      </trkpt>
      <trkpt lat="40.0663144793" lon="0.1250214502">
        <ele>11.19</ele>
        <time>2019-10-10T09:06:52Z</time>
      </trkpt>
      <trkpt lat="40.0662490167" lon="0.1250962168">
        <ele>13.12</ele>
        <time>2019-10-10T09:07:06Z</time>
      </trkpt>
      <trkpt lat="40.0662252121" lon="0.1251492742">
        <ele>12.63</ele>
        <time>2019-10-10T09:07:23Z</time>
      </trkpt>
      <trkpt lat="40.0662369467" lon="0.1252171677">
        <ele>11.67</ele>
        <time>2019-10-10T09:07:39Z</time>
      </trkpt>
      <trkpt lat="40.0662398804" lon="0.1252091210">
        <ele>11.67</ele>
        <time>2019-10-10T09:08:01Z</time>
      </trkpt>
      <trkpt lat="40.0662535429" lon="0.1252770983">
        <ele>10.23</ele>
        <time>2019-10-10T09:08:13Z</time>
      </trkpt>
      <trkpt lat="40.0662454125" lon="0.1252885815">
        <ele>10.23</ele>
        <time>2019-10-10T09:08:29Z</time>
      </trkpt>
      <trkpt lat="40.0662646908" lon="0.1253085304">
        <ele>10.23</ele>
        <time>2019-10-10T09:08:53Z</time>
      </trkpt>
      <trkpt lat="40.0662687980" lon="0.1253233664">
        <ele>9.75</ele>
        <time>2019-10-10T09:09:09Z</time>
      </trkpt>
      <trkpt lat="40.0662670378" lon="0.1253377832">
        <ele>9.75</ele>
        <time>2019-10-10T09:09:37Z</time>
      </trkpt>
      <trkpt lat="40.0662426464" lon="0.1252988912">
        <ele>9.75</ele>
        <time>2019-10-10T09:09:52Z</time>
      </trkpt>
      <trkpt lat="40.0662737433" lon="0.1252069417">
        <ele>12.15</ele>
        <time>2019-10-10T09:10:06Z</time>
      </trkpt>
      <trkpt lat="40.0663103722" lon="0.1251530461">
        <ele>12.63</ele>
        <time>2019-10-10T09:10:21Z</time>
      </trkpt>
      <trkpt lat="40.0663171615" lon="0.1250865776">
        <ele>13.12</ele>
        <time>2019-10-10T09:10:39Z</time>
      </trkpt>
      <trkpt lat="40.0663137250" lon="0.1250333525">
        <ele>13.12</ele>
        <time>2019-10-10T09:11:00Z</time>
      </trkpt>
      <trkpt lat="40.0663349312" lon="0.1249639504">
        <ele>11.67</ele>
        <time>2019-10-10T09:11:16Z</time>
      </trkpt>
      <trkpt lat="40.0663620047" lon="0.1248424966">
        <ele>9.75</ele>
        <time>2019-10-10T09:11:32Z</time>
      </trkpt>
      <trkpt lat="40.0663578976" lon="0.1247686520">
        <ele>8.79</ele>
        <time>2019-10-10T09:11:46Z</time>
      </trkpt>
      <trkpt lat="40.0663677044" lon="0.1247133315">
        <ele>7.83</ele>
        <time>2019-10-10T09:11:59Z</time>
      </trkpt>
      <trkpt lat="40.0663744099" lon="0.1246565860">
        <ele>7.35</ele>
        <time>2019-10-10T09:12:12Z</time>
      </trkpt>
      <trkpt lat="40.0663819537" lon="0.1245751139">
        <ele>6.39</ele>
        <time>2019-10-10T09:12:25Z</time>
      </trkpt>
      <trkpt lat="40.0663963705" lon="0.1245420054">
        <ele>5.91</ele>
        <time>2019-10-10T09:12:37Z</time>
      </trkpt>
      <trkpt lat="40.0663345121" lon="0.1245523989">
        <ele>5.91</ele>
        <time>2019-10-10T09:13:00Z</time>
      </trkpt>
      <trkpt lat="40.0664084405" lon="0.1245499682">
        <ele>5.91</ele>
        <time>2019-10-10T09:13:20Z</time>
      </trkpt>
      <trkpt lat="40.0664760824" lon="0.1245923806">
        <ele>5.91</ele>
        <time>2019-10-10T09:13:36Z</time>
      </trkpt>
      <trkpt lat="40.0665661041" lon="0.1246951427">
        <ele>6.87</ele>
        <time>2019-10-10T09:13:52Z</time>
      </trkpt>
      <trkpt lat="40.0666537788" lon="0.1247637067">
        <ele>6.87</ele>
        <time>2019-10-10T09:14:05Z</time>
      </trkpt>
      <trkpt lat="40.0667112786" lon="0.1248290855">
        <ele>6.87</ele>
        <time>2019-10-10T09:14:12Z</time>
      </trkpt>
      <trkpt lat="40.0668511726" lon="0.1249628607">
        <ele>7.35</ele>
        <time>2019-10-10T09:14:27Z</time>
      </trkpt>
      <trkpt lat="40.0670159608" lon="0.1251655351">
        <ele>7.35</ele>
        <time>2019-10-10T09:14:48Z</time>
      </trkpt>
      <trkpt lat="40.0671095029" lon="0.1252537966">
        <ele>7.35</ele>
        <time>2019-10-10T09:14:58Z</time>
      </trkpt>
      <trkpt lat="40.0672859419" lon="0.1254312415">
        <ele>7.83</ele>
        <time>2019-10-10T09:15:20Z</time>
      </trkpt>
      <trkpt lat="40.0674026180" lon="0.1255505998">
        <ele>7.35</ele>
        <time>2019-10-10T09:15:35Z</time>
      </trkpt>
      <trkpt lat="40.0674805697" lon="0.1256747358">
        <ele>7.35</ele>
        <time>2019-10-10T09:15:49Z</time>
      </trkpt>
      <trkpt lat="40.0675596111" lon="0.1257751510">
        <ele>7.83</ele>
        <time>2019-10-10T09:16:04Z</time>
      </trkpt>
      <trkpt lat="40.0676921289" lon="0.1259018853">
        <ele>7.83</ele>
        <time>2019-10-10T09:16:21Z</time>
      </trkpt>
      <trkpt lat="40.0677117426" lon="0.1259158831">
        <ele>7.83</ele>
        <time>2019-10-10T09:16:23Z</time>
      </trkpt>
      <trkpt lat="40.0678872596" lon="0.1260478981">
        <ele>7.83</ele>
        <time>2019-10-10T09:16:42Z</time>
      </trkpt>
      <trkpt lat="40.0680269022" lon="0.1261742972">
        <ele>7.83</ele>
        <time>2019-10-10T09:16:59Z</time>
      </trkpt>
      <trkpt lat="40.0681984797" lon="0.1263005286">
        <ele>6.39</ele>
        <time>2019-10-10T09:17:19Z</time>
      </trkpt>
      <trkpt lat="40.0683696382" lon="0.1264208090">
        <ele>6.39</ele>
        <time>2019-10-10T09:17:36Z</time>
      </trkpt>
      <trkpt lat="40.0685285591" lon="0.1265361439">
        <ele>6.39</ele>
        <time>2019-10-10T09:17:53Z</time>
      </trkpt>
      <trkpt lat="40.0687038247" lon="0.1266737748">
        <ele>5.91</ele>
        <time>2019-10-10T09:18:11Z</time>
      </trkpt>
      <trkpt lat="40.0688791741" lon="0.1268010959">
        <ele>5.91</ele>
        <time>2019-10-10T09:18:28Z</time>
      </trkpt>
      <trkpt lat="40.0690656714" lon="0.1269386429">
        <ele>5.91</ele>
        <time>2019-10-10T09:18:46Z</time>
      </trkpt>
      <trkpt lat="40.0692354888" lon="0.1270564925">
        <ele>5.91</ele>
        <time>2019-10-10T09:19:03Z</time>
      </trkpt>
      <trkpt lat="40.0694042165" lon="0.1271673013">
        <ele>6.39</ele>
        <time>2019-10-10T09:19:20Z</time>
      </trkpt>
      <trkpt lat="40.0694244169" lon="0.1271844842">
        <ele>6.39</ele>
        <time>2019-10-10T09:19:34Z</time>
      </trkpt>
      <trkpt lat="40.0695089065" lon="0.1272408105">
        <ele>6.39</ele>
        <time>2019-10-10T09:19:50Z</time>
      </trkpt>
      <trkpt lat="40.0695670769" lon="0.1272983104">
        <ele>6.39</ele>
        <time>2019-10-10T09:20:06Z</time>
      </trkpt>
      <trkpt lat="40.0696130935" lon="0.1273418125">
        <ele>6.39</ele>
        <time>2019-10-10T09:20:23Z</time>
      </trkpt>
      <trkpt lat="40.0696542487" lon="0.1273443270">
        <ele>6.39</ele>
        <time>2019-10-10T09:20:42Z</time>
      </trkpt>
      <trkpt lat="40.0697769597" lon="0.1274492685">
        <ele>6.39</ele>
        <time>2019-10-10T09:20:58Z</time>
      </trkpt>
      <trkpt lat="40.0699397363" lon="0.1275681239">
        <ele>6.39</ele>
        <time>2019-10-10T09:21:17Z</time>
      </trkpt>
      <trkpt lat="40.0700185262" lon="0.1275545452">
        <ele>6.39</ele>
        <time>2019-10-10T09:21:30Z</time>
      </trkpt>
      <trkpt lat="40.0700619444" lon="0.1276454888">
        <ele>6.39</ele>
        <time>2019-10-10T09:21:42Z</time>
      </trkpt>
      <trkpt lat="40.0701458473" lon="0.1277207583">
        <ele>6.39</ele>
        <time>2019-10-10T09:21:56Z</time>
      </trkpt>
      <trkpt lat="40.0702226255" lon="0.1277793478">
        <ele>6.39</ele>
        <time>2019-10-10T09:22:05Z</time>
      </trkpt>
      <trkpt lat="40.0702563208" lon="0.1277782582">
        <ele>6.39</ele>
        <time>2019-10-10T09:22:08Z</time>
      </trkpt>
      <trkpt lat="40.0703474320" lon="0.1278043259">
        <ele>6.39</ele>
        <time>2019-10-10T09:22:23Z</time>
      </trkpt>
      <trkpt lat="40.0703717396" lon="0.1278333273">
        <ele>6.39</ele>
        <time>2019-10-10T09:22:40Z</time>
      </trkpt>
      <trkpt lat="40.0703499466" lon="0.1279222593">
        <ele>6.39</ele>
        <time>2019-10-10T09:22:57Z</time>
      </trkpt>
      <trkpt lat="40.0703911856" lon="0.1279215887">
        <ele>6.39</ele>
        <time>2019-10-10T09:23:13Z</time>
      </trkpt>
      <trkpt lat="40.0703926943" lon="0.1279077586">
        <ele>7.35</ele>
        <time>2019-10-10T09:23:39Z</time>
      </trkpt>
      <trkpt lat="40.0704142358" lon="0.1279173978">
        <ele>7.35</ele>
        <time>2019-10-10T09:23:55Z</time>
      </trkpt>
      <trkpt lat="40.0704203546" lon="0.1279220078">
        <ele>7.35</ele>
        <time>2019-10-10T09:24:08Z</time>
      </trkpt>
      <trkpt lat="40.0704741664" lon="0.1279536914">
        <ele>7.35</ele>
        <time>2019-10-10T09:24:22Z</time>
      </trkpt>
      <trkpt lat="40.0705657806" lon="0.1280061621">
        <ele>7.35</ele>
        <time>2019-10-10T09:24:40Z</time>
      </trkpt>
      <trkpt lat="40.0705863163" lon="0.1280020550">
        <ele>7.83</ele>
        <time>2019-10-10T09:24:56Z</time>
      </trkpt>
      <trkpt lat="40.0706727337" lon="0.1280520950">
        <ele>7.83</ele>
        <time>2019-10-10T09:25:13Z</time>
      </trkpt>
      <trkpt lat="40.0707708020" lon="0.1281269453">
        <ele>7.83</ele>
        <time>2019-10-10T09:25:26Z</time>
      </trkpt>
      <trkpt lat="40.0708175730" lon="0.1281829365">
        <ele>7.83</ele>
        <time>2019-10-10T09:25:36Z</time>
      </trkpt>
      <trkpt lat="40.0751360971" lon="0.1313191932">
        <ele>8.79</ele>
        <time>2019-10-10T09:37:29Z</time>
      </trkpt>
      <trkpt lat="40.0751421321" lon="0.1313146669">
        <ele>7.35</ele>
        <time>2019-10-10T09:37:30Z</time>
      </trkpt>
      <trkpt lat="40.0752218440" lon="0.1312892698">
        <ele>7.35</ele>
        <time>2019-10-10T09:37:45Z</time>
      </trkpt>
      <trkpt lat="40.0753237680" lon="0.1313997433">
        <ele>7.35</ele>
        <time>2019-10-10T09:38:22Z</time>
      </trkpt>
      <trkpt lat="40.0752686150" lon="0.1314250566">
        <ele>6.87</ele>
        <time>2019-10-10T09:39:00Z</time>
      </trkpt>
      <trkpt lat="40.0752498396" lon="0.1313622762">
        <ele>7.35</ele>
        <time>2019-10-10T09:39:32Z</time>
      </trkpt>
      <trkpt lat="40.0752261188" lon="0.1313611865">
        <ele>7.35</ele>
        <time>2019-10-10T09:39:59Z</time>
      </trkpt>
      <trkpt lat="40.0752509292" lon="0.1313755196">
        <ele>7.83</ele>
        <time>2019-10-10T09:40:12Z</time>
      </trkpt>
      <trkpt lat="40.0753413700" lon="0.1314343605">
        <ele>7.83</ele>
        <time>2019-10-10T09:40:26Z</time>
      </trkpt>
      <trkpt lat="40.0754727982" lon="0.1315645315">
        <ele>7.83</ele>
        <time>2019-10-10T09:40:42Z</time>
      </trkpt>
      <trkpt lat="40.0755067449" lon="0.1316670422">
        <ele>7.83</ele>
        <time>2019-10-10T09:40:57Z</time>
      </trkpt>
      <trkpt lat="40.0753795914" lon="0.1317915972">
        <ele>9.27</ele>
        <time>2019-10-10T09:41:12Z</time>
      </trkpt>
      <trkpt lat="40.0753659289" lon="0.1318546291">
        <ele>9.75</ele>
        <time>2019-10-10T09:41:28Z</time>
      </trkpt>
      <trkpt lat="40.0753857102" lon="0.1318521146">
        <ele>9.75</ele>
        <time>2019-10-10T09:41:46Z</time>
      </trkpt>
      <trkpt lat="40.0754057430" lon="0.1318464149">
        <ele>9.75</ele>
        <time>2019-10-10T09:42:07Z</time>
      </trkpt>
      <trkpt lat="40.0753836986" lon="0.1318034157">
        <ele>9.75</ele>
        <time>2019-10-10T09:42:28Z</time>
      </trkpt>
      <trkpt lat="40.0754339900" lon="0.1317766774">
        <ele>9.75</ele>
        <time>2019-10-10T09:42:54Z</time>
      </trkpt>
      <trkpt lat="40.0755046494" lon="0.1316704787">
        <ele>9.27</ele>
        <time>2019-10-10T09:43:07Z</time>
      </trkpt>
      <trkpt lat="40.0755885523" lon="0.1316782739">
        <ele>8.79</ele>
        <time>2019-10-10T09:43:21Z</time>
      </trkpt>
      <trkpt lat="40.0756254327" lon="0.1316860691">
        <ele>8.79</ele>
        <time>2019-10-10T09:43:41Z</time>
      </trkpt>
      <trkpt lat="40.0756981038" lon="0.1317251287">
        <ele>8.79</ele>
        <time>2019-10-10T09:43:50Z</time>
      </trkpt>
      <trkpt lat="40.0758415181" lon="0.1317870710">
        <ele>8.79</ele>
        <time>2019-10-10T09:44:06Z</time>
      </trkpt>
      <trkpt lat="40.0759991817" lon="0.1318947785">
        <ele>8.31</ele>
        <time>2019-10-10T09:44:22Z</time>
      </trkpt>
      <trkpt lat="40.0760087371" lon="0.1319635101">
        <ele>8.31</ele>
        <time>2019-10-10T09:44:37Z</time>
      </trkpt>
      <trkpt lat="40.0760497246" lon="0.1320210937">
        <ele>8.31</ele>
        <time>2019-10-10T09:44:51Z</time>
      </trkpt>
      <trkpt lat="40.0760426000" lon="0.1320353430">
        <ele>8.31</ele>
        <time>2019-10-10T09:45:18Z</time>
      </trkpt>
      <trkpt lat="40.0760558434" lon="0.1320474129">
        <ele>8.31</ele>
        <time>2019-10-10T09:45:48Z</time>
      </trkpt>
      <trkpt lat="40.0760896225" lon="0.1320417132">
        <ele>8.31</ele>
        <time>2019-10-10T09:46:15Z</time>
      </trkpt>
      <trkpt lat="40.0761613715" lon="0.1320585608">
        <ele>8.31</ele>
        <time>2019-10-10T09:46:30Z</time>
      </trkpt>
      <trkpt lat="40.0762771256" lon="0.1321288850">
        <ele>8.31</ele>
        <time>2019-10-10T09:46:44Z</time>
      </trkpt>
      <trkpt lat="40.0763892755" lon="0.1322189067">
        <ele>8.31</ele>
        <time>2019-10-10T09:46:56Z</time>
      </trkpt>
      <trkpt lat="40.0765568297" lon="0.1323520951">
        <ele>7.83</ele>
        <time>2019-10-10T09:47:14Z</time>
      </trkpt>
      <trkpt lat="40.0766975619" lon="0.1324517559">
        <ele>7.35</ele>
        <time>2019-10-10T09:47:30Z</time>
      </trkpt>
      <trkpt lat="40.0767868292" lon="0.1325110160">
        <ele>7.83</ele>
        <time>2019-10-10T09:47:42Z</time>
      </trkpt>
      <trkpt lat="40.0769149885" lon="0.1325999480">
        <ele>7.35</ele>
        <time>2019-10-10T09:47:57Z</time>
      </trkpt>
      <trkpt lat="40.0770849735" lon="0.1327188872">
        <ele>7.83</ele>
        <time>2019-10-10T09:48:16Z</time>
      </trkpt>
      <trkpt lat="40.0771669485" lon="0.1327777281">
        <ele>7.35</ele>
        <time>2019-10-10T09:48:32Z</time>
      </trkpt>
      <trkpt lat="40.0772915035" lon="0.1328749582">
        <ele>7.83</ele>
        <time>2019-10-10T09:48:48Z</time>
      </trkpt>
      <trkpt lat="40.0773648452" lon="0.1329103298">
        <ele>7.35</ele>
        <time>2019-10-10T09:49:02Z</time>
      </trkpt>
      <trkpt lat="40.0775544439" lon="0.1330400817">
        <ele>7.35</ele>
        <time>2019-10-10T09:49:23Z</time>
      </trkpt>
      <trkpt lat="40.0777381752" lon="0.1331547461">
        <ele>7.35</ele>
        <time>2019-10-10T09:49:42Z</time>
      </trkpt>
      <trkpt lat="40.0778619759" lon="0.1332668122">
        <ele>7.35</ele>
        <time>2019-10-10T09:49:55Z</time>
      </trkpt>
      <trkpt lat="40.0779507402" lon="0.1333611086">
        <ele>7.35</ele>
        <time>2019-10-10T09:50:10Z</time>
      </trkpt>
      <trkpt lat="40.0780913047" lon="0.1334602665">
        <ele>7.35</ele>
        <time>2019-10-10T09:50:27Z</time>
      </trkpt>
      <trkpt lat="40.0782331266" lon="0.1335564908">
        <ele>6.87</ele>
        <time>2019-10-10T09:50:43Z</time>
      </trkpt>
      <trkpt lat="40.0784455240" lon="0.1336942054">
        <ele>6.87</ele>
        <time>2019-10-10T09:51:04Z</time>
      </trkpt>
      <trkpt lat="40.0786182750" lon="0.1338203531">
        <ele>6.87</ele>
        <time>2019-10-10T09:51:21Z</time>
      </trkpt>
      <trkpt lat="40.0787612703" lon="0.1339248754">
        <ele>6.39</ele>
        <time>2019-10-10T09:51:36Z</time>
      </trkpt>
      <trkpt lat="40.0789269805" lon="0.1340444013">
        <ele>6.39</ele>
        <time>2019-10-10T09:51:54Z</time>
      </trkpt>
      <trkpt lat="40.0790334307" lon="0.1341096126">
        <ele>6.39</ele>
        <time>2019-10-10T09:52:10Z</time>
      </trkpt>
      <trkpt lat="40.0791413058" lon="0.1342095248">
        <ele>6.39</ele>
        <time>2019-10-10T09:52:25Z</time>
      </trkpt>
      <trkpt lat="40.0792775955" lon="0.1342841238">
        <ele>6.39</ele>
        <time>2019-10-10T09:52:40Z</time>
      </trkpt>
      <trkpt lat="40.0794406235" lon="0.1344099361">
        <ele>6.39</ele>
        <time>2019-10-10T09:52:57Z</time>
      </trkpt>
      <trkpt lat="40.0796220917" lon="0.1345277857">
        <ele>6.39</ele>
        <time>2019-10-10T09:53:17Z</time>
      </trkpt>
      <trkpt lat="40.0798017159" lon="0.1346438751">
        <ele>6.39</ele>
        <time>2019-10-10T09:53:34Z</time>
      </trkpt>
      <trkpt lat="40.0799737126" lon="0.1347760577">
        <ele>6.39</ele>
        <time>2019-10-10T09:53:53Z</time>
      </trkpt>
      <trkpt lat="40.0801550969" lon="0.1349217352">
        <ele>6.39</ele>
        <time>2019-10-10T09:54:12Z</time>
      </trkpt>
      <trkpt lat="40.0803089887" lon="0.1350319572">
        <ele>6.39</ele>
        <time>2019-10-10T09:54:28Z</time>
      </trkpt>
      <trkpt lat="40.0804758724" lon="0.1351531595">
        <ele>6.39</ele>
        <time>2019-10-10T09:54:47Z</time>
      </trkpt>
      <trkpt lat="40.0805952307" lon="0.1352471206">
        <ele>6.39</ele>
        <time>2019-10-10T09:55:02Z</time>
      </trkpt>
      <trkpt lat="40.0806901138" lon="0.1353239827">
        <ele>5.91</ele>
        <time>2019-10-10T09:55:13Z</time>
      </trkpt>
      <trkpt lat="40.0808684807" lon="0.1354558300">
        <ele>5.91</ele>
        <time>2019-10-10T09:55:32Z</time>
      </trkpt>
      <trkpt lat="40.0810434110" lon="0.1355408225">
        <ele>5.91</ele>
        <time>2019-10-10T09:55:48Z</time>
      </trkpt>
      <trkpt lat="40.0812106300" lon="0.1356548164">
        <ele>5.91</ele>
        <time>2019-10-10T09:56:05Z</time>
      </trkpt>
      <trkpt lat="40.0813812017" lon="0.1357718278">
        <ele>5.42</ele>
        <time>2019-10-10T09:56:23Z</time>
      </trkpt>
      <trkpt lat="40.0815393683" lon="0.1358994842">
        <ele>5.42</ele>
        <time>2019-10-10T09:56:39Z</time>
      </trkpt>
      <trkpt lat="40.0816219300" lon="0.1359661203">
        <ele>5.42</ele>
        <time>2019-10-10T09:56:52Z</time>
      </trkpt>
      <trkpt lat="40.0817193277" lon="0.1360566448">
        <ele>5.42</ele>
        <time>2019-10-10T09:57:04Z</time>
      </trkpt>
      <trkpt lat="40.0818436313" lon="0.1361361053">
        <ele>4.94</ele>
        <time>2019-10-10T09:57:18Z</time>
      </trkpt>
      <trkpt lat="40.0819879677" lon="0.1362064295">
        <ele>4.94</ele>
        <time>2019-10-10T09:57:32Z</time>
      </trkpt>
      <trkpt lat="40.0820081681" lon="0.1362198405">
        <ele>4.94</ele>
        <time>2019-10-10T09:57:34Z</time>
      </trkpt>
      <trkpt lat="40.0821878761" lon="0.1363342535">
        <ele>4.46</ele>
        <time>2019-10-10T09:57:52Z</time>
      </trkpt>
      <trkpt lat="40.0823954120" lon="0.1364470739">
        <ele>3.98</ele>
        <time>2019-10-10T09:58:13Z</time>
      </trkpt>
      <trkpt lat="40.0824910495" lon="0.1364863850">
        <ele>3.50</ele>
        <time>2019-10-10T09:58:25Z</time>
      </trkpt>
      <trkpt lat="40.0826700032" lon="0.1365986187">
        <ele>2.54</ele>
        <time>2019-10-10T09:58:43Z</time>
      </trkpt>
      <trkpt lat="40.0828615297" lon="0.1367095951">
        <ele>1.10</ele>
        <time>2019-10-10T09:59:02Z</time>
      </trkpt>
      <trkpt lat="40.0829346199" lon="0.1367644966">
        <ele>0.14</ele>
        <time>2019-10-10T09:59:10Z</time>
      </trkpt>
      <trkpt lat="40.0830182713" lon="0.1368604694">
        <ele>-0.34</ele>
        <time>2019-10-10T09:59:21Z</time>
      </trkpt>
      <trkpt lat="40.0831814669" lon="0.1369780675">
        <ele>-1.79</ele>
        <time>2019-10-10T09:59:40Z</time>
      </trkpt>
      <trkpt lat="40.0832260586" lon="0.1370404288">
        <ele>-2.27</ele>
        <time>2019-10-10T09:59:57Z</time>
      </trkpt>
      <trkpt lat="40.0832659565" lon="0.1371460408">
        <ele>-3.23</ele>
        <time>2019-10-10T10:00:13Z</time>
      </trkpt>
      <trkpt lat="40.0832142401" lon="0.1372685842">
        <ele>-3.23</ele>
        <time>2019-10-10T10:00:28Z</time>
      </trkpt>
      <trkpt lat="40.0831762701" lon="0.1373837516">
        <ele>-3.71</ele>
        <time>2019-10-10T10:00:44Z</time>
      </trkpt>
      <trkpt lat="40.0831762701" lon="0.1374196261">
        <ele>-4.19</ele>
        <time>2019-10-10T10:00:48Z</time>
      </trkpt>
      <trkpt lat="40.0831182674" lon="0.1375723444">
        <ele>-4.19</ele>
        <time>2019-10-10T10:01:04Z</time>
      </trkpt>
      <trkpt lat="40.0831023417" lon="0.1376592647">
        <ele>-4.19</ele>
        <time>2019-10-10T10:01:14Z</time>
      </trkpt>
      <trkpt lat="40.0830853265" lon="0.1377453469">
        <ele>-4.19</ele>
        <time>2019-10-10T10:01:20Z</time>
      </trkpt>
      <trkpt lat="40.0829501264" lon="0.1379692275">
        <ele>-4.67</ele>
        <time>2019-10-10T10:01:42Z</time>
      </trkpt>
      <trkpt lat="40.0828400720" lon="0.1382508595">
        <ele>-5.63</ele>
        <time>2019-10-10T10:02:01Z</time>
      </trkpt>
      <trkpt lat="40.0828048680" lon="0.1382677909">
        <ele>-5.63</ele>
        <time>2019-10-10T10:02:16Z</time>
      </trkpt>
      <trkpt lat="40.0829222985" lon="0.1383604947">
        <ele>-5.63</ele>
        <time>2019-10-10T10:02:30Z</time>
      </trkpt>
      <trkpt lat="40.0829328597" lon="0.1383677032">
        <ele>-5.63</ele>
        <time>2019-10-10T10:02:31Z</time>
      </trkpt>
      <trkpt lat="40.0829699915" lon="0.1383932680">
        <ele>-5.63</ele>
        <time>2019-10-10T10:02:35Z</time>
      </trkpt>
      <trkpt lat="40.0830844883" lon="0.1384354290">
        <ele>-5.63</ele>
        <time>2019-10-10T10:02:50Z</time>
      </trkpt>
      <trkpt lat="40.0830920320" lon="0.1384295616">
        <ele>-4.19</ele>
        <time>2019-10-10T10:02:53Z</time>
      </trkpt>
      <trkpt lat="40.0830820575" lon="0.1384704653">
        <ele>-4.19</ele>
        <time>2019-10-10T10:03:10Z</time>
      </trkpt>
      <trkpt lat="40.0830782857" lon="0.1385088544">
        <ele>-4.19</ele>
        <time>2019-10-10T10:03:28Z</time>
      </trkpt>
      <trkpt lat="40.0831072871" lon="0.1384773385">
        <ele>-4.19</ele>
        <time>2019-10-10T10:03:53Z</time>
      </trkpt>
      <trkpt lat="40.0830678083" lon="0.1385341678">
        <ele>-3.71</ele>
        <time>2019-10-10T10:04:19Z</time>
      </trkpt>
      <trkpt lat="40.0830621924" lon="0.1385464054">
        <ele>-3.71</ele>
        <time>2019-10-10T10:04:33Z</time>
      </trkpt>
      <trkpt lat="40.0830062851" lon="0.1385894883">
        <ele>-3.23</ele>
        <time>2019-10-10T10:05:13Z</time>
      </trkpt>
      <trkpt lat="40.0832202751" lon="0.1370015368">
        <ele>8.31</ele>
        <time>2019-10-10T14:01:21Z</time>
      </trkpt>
      <trkpt lat="40.0836758316" lon="0.1374903694">
        <ele>10.71</ele>
        <time>2019-10-10T14:01:47Z</time>
      </trkpt>
      <trkpt lat="40.0836853031" lon="0.1375030261">
        <ele>9.27</ele>
        <time>2019-10-10T14:01:49Z</time>
      </trkpt>
      <trkpt lat="40.0837391987" lon="0.1375820674">
        <ele>10.71</ele>
        <time>2019-10-10T14:01:52Z</time>
      </trkpt>
      <trkpt lat="40.0830611028" lon="0.1372089051">
        <ele>11.19</ele>
        <time>2019-10-10T14:01:58Z</time>
      </trkpt>
      <trkpt lat="40.0827740226" lon="0.1375067979">
        <ele>11.19</ele>
        <time>2019-10-10T14:02:09Z</time>
      </trkpt>
      <trkpt lat="40.0826955680" lon="0.1370956656">
        <ele>11.67</ele>
        <time>2019-10-10T14:02:23Z</time>
      </trkpt>
      <trkpt lat="40.0827862602" lon="0.1366640814">
        <ele>12.63</ele>
        <time>2019-10-10T14:02:36Z</time>
      </trkpt>
      <trkpt lat="40.0826970767" lon="0.1366462279">
        <ele>13.12</ele>
        <time>2019-10-10T14:02:46Z</time>
      </trkpt>
      <trkpt lat="40.0826678239" lon="0.1366386842">
        <ele>13.60</ele>
        <time>2019-10-10T14:02:49Z</time>
      </trkpt>
      <trkpt lat="40.0825146865" lon="0.1365476567">
        <ele>14.56</ele>
        <time>2019-10-10T14:03:06Z</time>
      </trkpt>
      <trkpt lat="40.0824711844" lon="0.1365127880">
        <ele>15.04</ele>
        <time>2019-10-10T14:03:12Z</time>
      </trkpt>
      <trkpt lat="40.0823865272" lon="0.1364512648">
        <ele>15.52</ele>
        <time>2019-10-10T14:03:23Z</time>
      </trkpt>
      <trkpt lat="40.0823030435" lon="0.1364080142">
        <ele>15.52</ele>
        <time>2019-10-10T14:03:33Z</time>
      </trkpt>
      <trkpt lat="40.0821127743" lon="0.1363388635">
        <ele>16.00</ele>
        <time>2019-10-10T14:03:51Z</time>
      </trkpt>
      <trkpt lat="40.0820951723" lon="0.1363272965">
        <ele>15.52</ele>
        <time>2019-10-10T14:03:53Z</time>
      </trkpt>
      <trkpt lat="40.0819262769" lon="0.1362393703">
        <ele>16.00</ele>
        <time>2019-10-10T14:04:10Z</time>
      </trkpt>
      <trkpt lat="40.0818516780" lon="0.1361994725">
        <ele>16.00</ele>
        <time>2019-10-10T14:04:17Z</time>
      </trkpt>
      <trkpt lat="40.0816846266" lon="0.1361201797">
        <ele>16.48</ele>
        <time>2019-10-10T14:04:34Z</time>
      </trkpt>
      <trkpt lat="40.0816412922" lon="0.1360879093">
        <ele>16.48</ele>
        <time>2019-10-10T14:04:40Z</time>
      </trkpt>
      <trkpt lat="40.0814791862" lon="0.1360252127">
        <ele>16.00</ele>
        <time>2019-10-10T14:04:54Z</time>
      </trkpt>
      <trkpt lat="40.0814697985" lon="0.1360257994">
        <ele>16.00</ele>
        <time>2019-10-10T14:04:55Z</time>
      </trkpt>
      <trkpt lat="40.0814024918" lon="0.1360237040">
        <ele>16.48</ele>
        <time>2019-10-10T14:05:01Z</time>
      </trkpt>
      <trkpt lat="40.0812834688" lon="0.1359129790">
        <ele>16.48</ele>
        <time>2019-10-10T14:05:15Z</time>
      </trkpt>
      <trkpt lat="40.0811950397" lon="0.1358076185">
        <ele>16.96</ele>
        <time>2019-10-10T14:05:28Z</time>
      </trkpt>
      <trkpt lat="40.0811435748" lon="0.1357725821">
        <ele>16.96</ele>
        <time>2019-10-10T14:05:37Z</time>
      </trkpt>
      <trkpt lat="40.0810161699" lon="0.1357084606">
        <ele>16.96</ele>
        <time>2019-10-10T14:05:51Z</time>
      </trkpt>
      <trkpt lat="40.0809004158" lon="0.1356673054">
        <ele>16.96</ele>
        <time>2019-10-10T14:06:03Z</time>
      </trkpt>
      <trkpt lat="40.0807908643" lon="0.1355511323">
        <ele>16.48</ele>
        <time>2019-10-10T14:06:16Z</time>
      </trkpt>
      <trkpt lat="40.0806538202" lon="0.1354574226">
        <ele>16.48</ele>
        <time>2019-10-10T14:06:29Z</time>
      </trkpt>
      <trkpt lat="40.0805359706" lon="0.1353104878">
        <ele>16.96</ele>
        <time>2019-10-10T14:06:45Z</time>
      </trkpt>
      <trkpt lat="40.0804202165" lon="0.1352083124">
        <ele>16.96</ele>
        <time>2019-10-10T14:06:59Z</time>
      </trkpt>
      <trkpt lat="40.0802980922" lon="0.1350985095">
        <ele>16.96</ele>
        <time>2019-10-10T14:07:12Z</time>
      </trkpt>
      <trkpt lat="40.0801393390" lon="0.1350065600">
        <ele>16.96</ele>
        <time>2019-10-10T14:07:29Z</time>
      </trkpt>
      <trkpt lat="40.0800219923" lon="0.1349072345">
        <ele>17.44</ele>
        <time>2019-10-10T14:07:44Z</time>
      </trkpt>
      <trkpt lat="40.0799522549" lon="0.1348428614">
        <ele>17.44</ele>
        <time>2019-10-10T14:07:59Z</time>
      </trkpt>
      <trkpt lat="40.0798225868" lon="0.1347575337">
        <ele>17.44</ele>
        <time>2019-10-10T14:08:14Z</time>
      </trkpt>
      <trkpt lat="40.0796745624" lon="0.1346508320">
        <ele>16.96</ele>
        <time>2019-10-10T14:08:31Z</time>
      </trkpt>
      <trkpt lat="40.0795182399" lon="0.1345351618">
        <ele>16.96</ele>
        <time>2019-10-10T14:08:48Z</time>
      </trkpt>
      <trkpt lat="40.0793818664" lon="0.1344391890">
        <ele>16.96</ele>
        <time>2019-10-10T14:09:03Z</time>
      </trkpt>
      <trkpt lat="40.0792104565" lon="0.1343084313">
        <ele>16.96</ele>
        <time>2019-10-10T14:09:21Z</time>
      </trkpt>
      <trkpt lat="40.0790348556" lon="0.1342171524">
        <ele>16.96</ele>
        <time>2019-10-10T14:09:37Z</time>
      </trkpt>
      <trkpt lat="40.0789601728" lon="0.1341588981">
        <ele>16.96</ele>
        <time>2019-10-10T14:09:50Z</time>
      </trkpt>
      <trkpt lat="40.0788242184" lon="0.1340516936">
        <ele>16.96</ele>
        <time>2019-10-10T14:10:06Z</time>
      </trkpt>
      <trkpt lat="40.0786358770" lon="0.1339086983">
        <ele>16.96</ele>
        <time>2019-10-10T14:10:25Z</time>
      </trkpt>
      <trkpt lat="40.0784470327" lon="0.1337706484">
        <ele>16.48</ele>
        <time>2019-10-10T14:10:44Z</time>
      </trkpt>
      <trkpt lat="40.0783545803" lon="0.1337025035">
        <ele>16.48</ele>
        <time>2019-10-10T14:10:54Z</time>
      </trkpt>
      <trkpt lat="40.0782270078" lon="0.1335967239">
        <ele>16.48</ele>
        <time>2019-10-10T14:11:08Z</time>
      </trkpt>
      <trkpt lat="40.0780496467" lon="0.1334682293">
        <ele>16.48</ele>
        <time>2019-10-10T14:11:25Z</time>
      </trkpt>
      <trkpt lat="40.0779400952" lon="0.1333798841">
        <ele>16.48</ele>
        <time>2019-10-10T14:11:38Z</time>
      </trkpt>
      <trkpt lat="40.0777442101" lon="0.1332155988">
        <ele>16.48</ele>
        <time>2019-10-10T14:11:58Z</time>
      </trkpt>
      <trkpt lat="40.0775665138" lon="0.1330879424">
        <ele>16.48</ele>
        <time>2019-10-10T14:12:16Z</time>
      </trkpt>
      <trkpt lat="40.0773744844" lon="0.1329511497">
        <ele>16.00</ele>
        <time>2019-10-10T14:12:35Z</time>
      </trkpt>
      <trkpt lat="40.0772116240" lon="0.1328344736">
        <ele>16.48</ele>
        <time>2019-10-10T14:12:52Z</time>
      </trkpt>
      <trkpt lat="40.0770551339" lon="0.1327108406">
        <ele>16.00</ele>
        <time>2019-10-10T14:13:10Z</time>
      </trkpt>
      <trkpt lat="40.0768631883" lon="0.1325796638">
        <ele>16.00</ele>
        <time>2019-10-10T14:13:29Z</time>
      </trkpt>
      <trkpt lat="40.0767090451" lon="0.1324697770">
        <ele>16.48</ele>
        <time>2019-10-10T14:13:46Z</time>
      </trkpt>
      <trkpt lat="40.0765572488" lon="0.1323627401">
        <ele>16.00</ele>
        <time>2019-10-10T14:14:00Z</time>
      </trkpt>
      <trkpt lat="40.0763691589" lon="0.1322452258">
        <ele>16.00</ele>
        <time>2019-10-10T14:14:19Z</time>
      </trkpt>
      <trkpt lat="40.0762092322" lon="0.1321381051">
        <ele>16.00</ele>
        <time>2019-10-10T14:14:35Z</time>
      </trkpt>
      <trkpt lat="40.0761917979" lon="0.1321256161">
        <ele>16.00</ele>
        <time>2019-10-10T14:14:37Z</time>
      </trkpt>
      <trkpt lat="40.0760523230" lon="0.1320237760">
        <ele>15.52</ele>
        <time>2019-10-10T14:14:53Z</time>
      </trkpt>
      <trkpt lat="40.0760301948" lon="0.1320107840">
        <ele>15.52</ele>
        <time>2019-10-10T14:14:55Z</time>
      </trkpt>
      <trkpt lat="40.0758446194" lon="0.1318801939">
        <ele>15.52</ele>
        <time>2019-10-10T14:15:13Z</time>
      </trkpt>
      <trkpt lat="40.0757012051" lon="0.1317568962">
        <ele>15.52</ele>
        <time>2019-10-10T14:15:30Z</time>
      </trkpt>
      <trkpt lat="40.0755706988" lon="0.1316558104">
        <ele>15.52</ele>
        <time>2019-10-10T14:15:43Z</time>
      </trkpt>
      <trkpt lat="40.0753849559" lon="0.1315548085">
        <ele>16.00</ele>
        <time>2019-10-10T14:15:57Z</time>
      </trkpt>
      <trkpt lat="40.0752609875" lon="0.1314315945">
        <ele>16.00</ele>
        <time>2019-10-10T14:16:12Z</time>
      </trkpt>
      <trkpt lat="40.0752148032" lon="0.1313713286">
        <ele>16.48</ele>
        <time>2019-10-10T14:16:28Z</time>
      </trkpt>
      <trkpt lat="40.0708158966" lon="0.1280570403">
        <ele>16.96</ele>
        <time>2019-10-10T14:23:47Z</time>
      </trkpt>
      <trkpt lat="40.0707625877" lon="0.1280661765">
        <ele>16.96</ele>
        <time>2019-10-10T14:23:51Z</time>
      </trkpt>
      <trkpt lat="40.0705877412" lon="0.1279401127">
        <ele>16.96</ele>
        <time>2019-10-10T14:24:05Z</time>
      </trkpt>
      <trkpt lat="40.0704492722" lon="0.1279487461">
        <ele>16.96</ele>
        <time>2019-10-10T14:24:20Z</time>
      </trkpt>
      <trkpt lat="40.0702968892" lon="0.1278722193">
        <ele>16.00</ele>
        <time>2019-10-10T14:24:36Z</time>
      </trkpt>
      <trkpt lat="40.0701497868" lon="0.1277597342">
        <ele>15.52</ele>
        <time>2019-10-10T14:24:53Z</time>
      </trkpt>
      <trkpt lat="40.0701085478" lon="0.1277093589">
        <ele>15.04</ele>
        <time>2019-10-10T14:25:07Z</time>
      </trkpt>
      <trkpt lat="40.0699145906" lon="0.1276102010">
        <ele>15.04</ele>
        <time>2019-10-10T14:25:24Z</time>
      </trkpt>
      <trkpt lat="40.0697061326" lon="0.1274433173">
        <ele>15.04</ele>
        <time>2019-10-10T14:25:43Z</time>
      </trkpt>
      <trkpt lat="40.0695245806" lon="0.1273143198">
        <ele>15.04</ele>
        <time>2019-10-10T14:26:01Z</time>
      </trkpt>
      <trkpt lat="40.0693615526" lon="0.1271982305">
        <ele>15.04</ele>
        <time>2019-10-10T14:26:18Z</time>
      </trkpt>
      <trkpt lat="40.0692354050" lon="0.1271114778">
        <ele>15.04</ele>
        <time>2019-10-10T14:26:32Z</time>
      </trkpt>
      <trkpt lat="40.0690435432" lon="0.1269731764">
        <ele>15.04</ele>
        <time>2019-10-10T14:26:51Z</time>
      </trkpt>
      <trkpt lat="40.0688552856" lon="0.1268409938">
        <ele>15.04</ele>
        <time>2019-10-10T14:27:10Z</time>
      </trkpt>
      <trkpt lat="40.0686698779" lon="0.1267026085">
        <ele>14.56</ele>
        <time>2019-10-10T14:27:29Z</time>
      </trkpt>
      <trkpt lat="40.0684774294" lon="0.1265576854">
        <ele>14.56</ele>
        <time>2019-10-10T14:27:48Z</time>
      </trkpt>
      <trkpt lat="40.0683201011" lon="0.1264338009">
        <ele>14.56</ele>
        <time>2019-10-10T14:28:05Z</time>
      </trkpt>
      <trkpt lat="40.0682088733" lon="0.1263209805">
        <ele>16.00</ele>
        <time>2019-10-10T14:28:19Z</time>
      </trkpt>
      <trkpt lat="40.0680786185" lon="0.1262154523">
        <ele>16.00</ele>
        <time>2019-10-10T14:28:34Z</time>
      </trkpt>
      <trkpt lat="40.0679506268" lon="0.1261204015">
        <ele>16.48</ele>
        <time>2019-10-10T14:28:47Z</time>
      </trkpt>
      <trkpt lat="40.0677670632" lon="0.1259841118">
        <ele>16.96</ele>
        <time>2019-10-10T14:29:06Z</time>
      </trkpt>
      <trkpt lat="40.0677188672" lon="0.1259448845">
        <ele>16.96</ele>
        <time>2019-10-10T14:29:11Z</time>
      </trkpt>
      <trkpt lat="40.0677014329" lon="0.1259210799">
        <ele>16.96</ele>
        <time>2019-10-10T14:29:13Z</time>
      </trkpt>
      <trkpt lat="40.0676206313" lon="0.1258445531">
        <ele>16.96</ele>
        <time>2019-10-10T14:29:26Z</time>
      </trkpt>
      <trkpt lat="40.0675466191" lon="0.1257803477">
        <ele>16.96</ele>
        <time>2019-10-10T14:29:41Z</time>
      </trkpt>
      <trkpt lat="40.0675375666" lon="0.1257753186">
        <ele>16.96</ele>
        <time>2019-10-10T14:29:42Z</time>
      </trkpt>
      <trkpt lat="40.0674122572" lon="0.1256469917">
        <ele>16.96</ele>
        <time>2019-10-10T14:29:57Z</time>
      </trkpt>
      <trkpt lat="40.0672756322" lon="0.1254853047">
        <ele>16.96</ele>
        <time>2019-10-10T14:30:15Z</time>
      </trkpt>
      <trkpt lat="40.0671539269" lon="0.1252360269">
        <ele>16.96</ele>
        <time>2019-10-10T14:30:34Z</time>
      </trkpt>
      <trkpt lat="40.0670288689" lon="0.1250975579">
        <ele>17.44</ele>
        <time>2019-10-10T14:30:49Z</time>
      </trkpt>
      <trkpt lat="40.0668858737" lon="0.1249376312">
        <ele>16.96</ele>
        <time>2019-10-10T14:31:05Z</time>
      </trkpt>
      <trkpt lat="40.0667689461" lon="0.1247739326">
        <ele>16.96</ele>
        <time>2019-10-10T14:31:21Z</time>
      </trkpt>
      <trkpt lat="40.0667464826" lon="0.1247380581">
        <ele>16.96</ele>
        <time>2019-10-10T14:31:35Z</time>
      </trkpt>
      <trkpt lat="40.0666881446" lon="0.1246655546">
        <ele>16.96</ele>
        <time>2019-10-10T14:31:50Z</time>
      </trkpt>
      <trkpt lat="40.0665449817" lon="0.1245877706">
        <ele>15.52</ele>
        <time>2019-10-10T14:32:05Z</time>
      </trkpt>
      <trkpt lat="40.0663437322" lon="0.1244063023">
        <ele>15.04</ele>
        <time>2019-10-10T14:32:26Z</time>
      </trkpt>
      <trkpt lat="40.0663076900" lon="0.1243562624">
        <ele>14.56</ele>
        <time>2019-10-10T14:32:39Z</time>
      </trkpt>
      <trkpt lat="40.0661852304" lon="0.1242170390">
        <ele>14.56</ele>
        <time>2019-10-10T14:32:53Z</time>
      </trkpt>
      <trkpt lat="40.0660769362" lon="0.1240474731">
        <ele>14.08</ele>
        <time>2019-10-10T14:33:08Z</time>
      </trkpt>
      <trkpt lat="40.0659647025" lon="0.1238680165">
        <ele>14.08</ele>
        <time>2019-10-10T14:33:23Z</time>
      </trkpt>
      <trkpt lat="40.0658310950" lon="0.1237090118">
        <ele>14.08</ele>
        <time>2019-10-10T14:33:38Z</time>
      </trkpt>
      <trkpt lat="40.0657098927" lon="0.1234948542">
        <ele>13.60</ele>
        <time>2019-10-10T14:33:55Z</time>
      </trkpt>
      <trkpt lat="40.0655772071" lon="0.1233014837">
        <ele>13.60</ele>
        <time>2019-10-10T14:34:12Z</time>
      </trkpt>
      <trkpt lat="40.0655153487" lon="0.1231862325">
        <ele>13.60</ele>
        <time>2019-10-10T14:34:22Z</time>
      </trkpt>
      <trkpt lat="40.0653902907" lon="0.1229643635">
        <ele>13.12</ele>
        <time>2019-10-10T14:34:40Z</time>
      </trkpt>
      <trkpt lat="40.0652720220" lon="0.1227336936">
        <ele>13.12</ele>
        <time>2019-10-10T14:34:58Z</time>
      </trkpt>
      <trkpt lat="40.0651578605" lon="0.1224853378">
        <ele>12.63</ele>
        <time>2019-10-10T14:35:18Z</time>
      </trkpt>
      <trkpt lat="40.0650701020" lon="0.1222679112">
        <ele>12.63</ele>
        <time>2019-10-10T14:35:34Z</time>
      </trkpt>
      <trkpt lat="40.0649763085" lon="0.1220627222">
        <ele>12.63</ele>
        <time>2019-10-10T14:35:51Z</time>
      </trkpt>
      <trkpt lat="40.0649384223" lon="0.1219705213">
        <ele>12.63</ele>
        <time>2019-10-10T14:35:58Z</time>
      </trkpt>
      <trkpt lat="40.0648416951" lon="0.1217196509">
        <ele>12.63</ele>
        <time>2019-10-10T14:36:17Z</time>
      </trkpt>
      <trkpt lat="40.0648098439" lon="0.1216312218">
        <ele>12.63</ele>
        <time>2019-10-10T14:36:24Z</time>
      </trkpt>
      <trkpt lat="40.0647124462" lon="0.1213985402">
        <ele>12.15</ele>
        <time>2019-10-10T14:36:42Z</time>
      </trkpt>
      <trkpt lat="40.0646071695" lon="0.1211336721">
        <ele>12.15</ele>
        <time>2019-10-10T14:37:03Z</time>
      </trkpt>
      <trkpt lat="40.0645189080" lon="0.1208974700">
        <ele>12.15</ele>
        <time>2019-10-10T14:37:21Z</time>
      </trkpt>
      <trkpt lat="40.0644712150" lon="0.1207591686">
        <ele>12.15</ele>
        <time>2019-10-10T14:37:34Z</time>
      </trkpt>
      <trkpt lat="40.0643780082" lon="0.1205249783">
        <ele>11.67</ele>
        <time>2019-10-10T14:37:52Z</time>
      </trkpt>
      <trkpt lat="40.0642993860" lon="0.1202990860">
        <ele>11.67</ele>
        <time>2019-10-10T14:38:09Z</time>
      </trkpt>
      <trkpt lat="40.0642676186" lon="0.1202119142">
        <ele>11.67</ele>
        <time>2019-10-10T14:38:15Z</time>
      </trkpt>
      <trkpt lat="40.0642034970" lon="0.1200312003">
        <ele>11.67</ele>
        <time>2019-10-10T14:38:30Z</time>
      </trkpt>
      <trkpt lat="40.0641272217" lon="0.1198456250">
        <ele>11.67</ele>
        <time>2019-10-10T14:38:45Z</time>
      </trkpt>
      <trkpt lat="40.0640392955" lon="0.1196499076">
        <ele>11.19</ele>
        <time>2019-10-10T14:39:01Z</time>
      </trkpt>
      <trkpt lat="40.0639450829" lon="0.1194163039">
        <ele>10.71</ele>
        <time>2019-10-10T14:39:16Z</time>
      </trkpt>
      <trkpt lat="40.0638686400" lon="0.1192245260">
        <ele>10.71</ele>
        <time>2019-10-10T14:39:31Z</time>
      </trkpt>
      <trkpt lat="40.0637710746" lon="0.1189859770">
        <ele>10.71</ele>
        <time>2019-10-10T14:39:47Z</time>
      </trkpt>
      <trkpt lat="40.0636560749" lon="0.1187237073">
        <ele>10.71</ele>
        <time>2019-10-10T14:40:05Z</time>
      </trkpt>
      <trkpt lat="40.0635511335" lon="0.1184694003">
        <ele>10.71</ele>
        <time>2019-10-10T14:40:23Z</time>
      </trkpt>
      <trkpt lat="40.0634388998" lon="0.1182407420">
        <ele>10.71</ele>
        <time>2019-10-10T14:40:41Z</time>
      </trkpt>
      <trkpt lat="40.0633641332" lon="0.1180349663">
        <ele>10.71</ele>
        <time>2019-10-10T14:40:58Z</time>
      </trkpt>
      <trkpt lat="40.0632634666" lon="0.1177971717">
        <ele>10.23</ele>
        <time>2019-10-10T14:41:16Z</time>
      </trkpt>
      <trkpt lat="40.0631674100" lon="0.1175488159">
        <ele>10.23</ele>
        <time>2019-10-10T14:41:34Z</time>
      </trkpt>
      <trkpt lat="40.0630493928" lon="0.1172827743">
        <ele>10.23</ele>
        <time>2019-10-10T14:41:53Z</time>
      </trkpt>
      <trkpt lat="40.0630303659" lon="0.1172260288">
        <ele>10.23</ele>
        <time>2019-10-10T14:42:08Z</time>
      </trkpt>
      <trkpt lat="40.0629349798" lon="0.1169512700">
        <ele>10.23</ele>
        <time>2019-10-10T14:42:29Z</time>
      </trkpt>
      <trkpt lat="40.0628037192" lon="0.1166650280">
        <ele>10.23</ele>
        <time>2019-10-10T14:42:48Z</time>
      </trkpt>
      <trkpt lat="40.0626801699" lon="0.1163471024">
        <ele>9.75</ele>
        <time>2019-10-10T14:43:11Z</time>
      </trkpt>
      <trkpt lat="40.0625776593" lon="0.1160777919">
        <ele>9.75</ele>
        <time>2019-10-10T14:43:31Z</time>
      </trkpt>
      <trkpt lat="40.0625705346" lon="0.1160580944">
        <ele>9.75</ele>
        <time>2019-10-10T14:43:33Z</time>
      </trkpt>
      <trkpt lat="40.0625372585" lon="0.1159634627">
        <ele>9.75</ele>
        <time>2019-10-10T14:43:45Z</time>
      </trkpt>
      <trkpt lat="40.0624242704" lon="0.1157011092">
        <ele>9.75</ele>
        <time>2019-10-10T14:44:06Z</time>
      </trkpt>
      <trkpt lat="40.0623250287" lon="0.1154728699">
        <ele>9.75</ele>
        <time>2019-10-10T14:44:25Z</time>
      </trkpt>
      <trkpt lat="40.0623376854" lon="0.1154435333">
        <ele>9.75</ele>
        <time>2019-10-10T14:44:39Z</time>
      </trkpt>
      <trkpt lat="40.0622248650" lon="0.1152378414">
        <ele>9.75</ele>
        <time>2019-10-10T14:44:57Z</time>
      </trkpt>
      <trkpt lat="40.0621007290" lon="0.1149320696">
        <ele>9.27</ele>
        <time>2019-10-10T14:45:19Z</time>
      </trkpt>
      <trkpt lat="40.0620142277" lon="0.1146770082">
        <ele>9.27</ele>
        <time>2019-10-10T14:45:37Z</time>
      </trkpt>
      <trkpt lat="40.0619128067" lon="0.1144411415">
        <ele>9.27</ele>
        <time>2019-10-10T14:45:55Z</time>
      </trkpt>
      <trkpt lat="40.0618276466" lon="0.1142126508">
        <ele>9.27</ele>
        <time>2019-10-10T14:46:14Z</time>
      </trkpt>
      <trkpt lat="40.0617589150" lon="0.1140466891">
        <ele>9.27</ele>
        <time>2019-10-10T14:46:29Z</time>
      </trkpt>
      <trkpt lat="40.0616724137" lon="0.1138206292">
        <ele>9.27</ele>
        <time>2019-10-10T14:46:46Z</time>
      </trkpt>
      <trkpt lat="40.0615600124" lon="0.1135571860">
        <ele>9.27</ele>
        <time>2019-10-10T14:47:06Z</time>
      </trkpt>
      <trkpt lat="40.0614486169" lon="0.1132964250">
        <ele>9.27</ele>
        <time>2019-10-10T14:47:26Z</time>
      </trkpt>
      <trkpt lat="40.0613468606" lon="0.1130667608">
        <ele>9.27</ele>
        <time>2019-10-10T14:47:45Z</time>
      </trkpt>
      <trkpt lat="40.0612447690" lon="0.1128287986">
        <ele>8.79</ele>
        <time>2019-10-10T14:48:04Z</time>
      </trkpt>
      <trkpt lat="40.0612269156" lon="0.1127833687">
        <ele>8.79</ele>
        <time>2019-10-10T14:48:08Z</time>
      </trkpt>
      <trkpt lat="40.0611782167" lon="0.1126961131">
        <ele>8.79</ele>
        <time>2019-10-10T14:48:15Z</time>
      </trkpt>
      <trkpt lat="40.0610568468" lon="0.1124695502">
        <ele>8.79</ele>
        <time>2019-10-10T14:48:34Z</time>
      </trkpt>
      <trkpt lat="40.0609746203" lon="0.1122956257">
        <ele>8.79</ele>
        <time>2019-10-10T14:48:51Z</time>
      </trkpt>
      <trkpt lat="40.0608985126" lon="0.1121706516">
        <ele>8.79</ele>
        <time>2019-10-10T14:49:05Z</time>
      </trkpt>
      <trkpt lat="40.0607768912" lon="0.1119765267">
        <ele>8.79</ele>
        <time>2019-10-10T14:49:22Z</time>
      </trkpt>
      <trkpt lat="40.0606423616" lon="0.1117589325">
        <ele>8.31</ele>
        <time>2019-10-10T14:49:40Z</time>
      </trkpt>
      <trkpt lat="40.0604981091" lon="0.1115446072">
        <ele>8.31</ele>
        <time>2019-10-10T14:50:00Z</time>
      </trkpt>
      <trkpt lat="40.0604774058" lon="0.1114974171">
        <ele>8.31</ele>
        <time>2019-10-10T14:50:04Z</time>
      </trkpt>
      <trkpt lat="40.0604438782" lon="0.1114568487">
        <ele>8.31</ele>
        <time>2019-10-10T14:50:08Z</time>
      </trkpt>
      <trkpt lat="40.0604128651" lon="0.1113930624">
        <ele>8.31</ele>
        <time>2019-10-10T14:50:13Z</time>
      </trkpt>
      <trkpt lat="40.0602468196" lon="0.1111566927">
        <ele>8.31</ele>
        <time>2019-10-10T14:50:34Z</time>
      </trkpt>
      <trkpt lat="40.0600839593" lon="0.1109266933">
        <ele>8.31</ele>
        <time>2019-10-10T14:50:54Z</time>
      </trkpt>
      <trkpt lat="40.0599330012" lon="0.1107409503">
        <ele>8.31</ele>
        <time>2019-10-10T14:51:12Z</time>
      </trkpt>
      <trkpt lat="40.0598828774" lon="0.1106723025">
        <ele>9.27</ele>
        <time>2019-10-10T14:51:18Z</time>
      </trkpt>
      <trkpt lat="40.0597211067" lon="0.1105001383">
        <ele>9.27</ele>
        <time>2019-10-10T14:51:36Z</time>
      </trkpt>
      <trkpt lat="40.0595906004" lon="0.1103489287">
        <ele>9.27</ele>
        <time>2019-10-10T14:51:51Z</time>
      </trkpt>
      <trkpt lat="40.0594616029" lon="0.1102086995">
        <ele>9.27</ele>
        <time>2019-10-10T14:52:05Z</time>
      </trkpt>
      <trkpt lat="40.0592801347" lon="0.1100498624">
        <ele>9.27</ele>
        <time>2019-10-10T14:52:22Z</time>
      </trkpt>
      <trkpt lat="40.0591277517" lon="0.1098958030">
        <ele>9.27</ele>
        <time>2019-10-10T14:52:39Z</time>
      </trkpt>
      <trkpt lat="40.0590622891" lon="0.1098403148">
        <ele>9.27</ele>
        <time>2019-10-10T14:52:46Z</time>
      </trkpt>
      <trkpt lat="40.0589122530" lon="0.1096819807">
        <ele>9.27</ele>
        <time>2019-10-10T14:53:03Z</time>
      </trkpt>
      <trkpt lat="40.0587793998" lon="0.1095317770">
        <ele>9.75</ele>
        <time>2019-10-10T14:53:19Z</time>
      </trkpt>
      <trkpt lat="40.0586728659" lon="0.1093826629">
        <ele>10.23</ele>
        <time>2019-10-10T14:53:34Z</time>
      </trkpt>
      <trkpt lat="40.0586326327" lon="0.1093442738">
        <ele>10.71</ele>
        <time>2019-10-10T14:53:39Z</time>
      </trkpt>
      <trkpt lat="40.0586053077" lon="0.1092989277">
        <ele>10.71</ele>
        <time>2019-10-10T14:53:43Z</time>
      </trkpt>
      <trkpt lat="40.0585454609" lon="0.1091379113">
        <ele>10.71</ele>
        <time>2019-10-10T14:53:56Z</time>
      </trkpt>
      <trkpt lat="40.0585395098" lon="0.1091177948">
        <ele>10.71</ele>
        <time>2019-10-10T14:53:58Z</time>
      </trkpt>
      <trkpt lat="40.0584758073" lon="0.1089338120">
        <ele>10.71</ele>
        <time>2019-10-10T14:54:12Z</time>
      </trkpt>
      <trkpt lat="40.0584647432" lon="0.1089107618">
        <ele>10.71</ele>
        <time>2019-10-10T14:54:14Z</time>
      </trkpt>
      <trkpt lat="40.0583701115" lon="0.1087211631">
        <ele>10.71</ele>
        <time>2019-10-10T14:54:28Z</time>
      </trkpt>
      <trkpt lat="40.0583038107" lon="0.1085973624">
        <ele>11.19</ele>
        <time>2019-10-10T14:54:37Z</time>
      </trkpt>
      <trkpt lat="40.0582780782" lon="0.1085421257">
        <ele>11.19</ele>
        <time>2019-10-10T14:54:42Z</time>
      </trkpt>
      <trkpt lat="40.0581356697" lon="0.1083458215">
        <ele>11.19</ele>
        <time>2019-10-10T14:54:58Z</time>
      </trkpt>
      <trkpt lat="40.0579629187" lon="0.1081213541">
        <ele>11.19</ele>
        <time>2019-10-10T14:55:17Z</time>
      </trkpt>
      <trkpt lat="40.0578340888" lon="0.1078979764">
        <ele>11.19</ele>
        <time>2019-10-10T14:55:36Z</time>
      </trkpt>
      <trkpt lat="40.0577552151" lon="0.1076837350">
        <ele>11.19</ele>
        <time>2019-10-10T14:55:52Z</time>
      </trkpt>
      <trkpt lat="40.0576997269" lon="0.1075762790">
        <ele>11.19</ele>
        <time>2019-10-10T14:56:01Z</time>
      </trkpt>
      <trkpt lat="40.0576164946" lon="0.1073275041">
        <ele>11.19</ele>
        <time>2019-10-10T14:56:19Z</time>
      </trkpt>
      <trkpt lat="40.0575608388" lon="0.1070926432">
        <ele>11.19</ele>
        <time>2019-10-10T14:56:34Z</time>
      </trkpt>
      <trkpt lat="40.0574706495" lon="0.1068219915">
        <ele>11.19</ele>
        <time>2019-10-10T14:56:49Z</time>
      </trkpt>
      <trkpt lat="40.0574248005" lon="0.1066266093">
        <ele>10.23</ele>
        <time>2019-10-10T14:57:02Z</time>
      </trkpt>
      <trkpt lat="40.0574018341" lon="0.1065018866">
        <ele>10.23</ele>
        <time>2019-10-10T14:57:11Z</time>
      </trkpt>
      <trkpt lat="40.0573823042" lon="0.1064334065">
        <ele>11.67</ele>
        <time>2019-10-10T14:57:15Z</time>
      </trkpt>
      <trkpt lat="40.0573708210" lon="0.1063680276">
        <ele>11.67</ele>
        <time>2019-10-10T14:57:19Z</time>
      </trkpt>
      <trkpt lat="40.0573869981" lon="0.1061367709">
        <ele>11.67</ele>
        <time>2019-10-10T14:57:34Z</time>
      </trkpt>
      <trkpt lat="40.0573516265" lon="0.1058787759">
        <ele>11.67</ele>
        <time>2019-10-10T14:57:50Z</time>
      </trkpt>
      <trkpt lat="40.0573486928" lon="0.1058628503">
        <ele>11.67</ele>
        <time>2019-10-10T14:57:51Z</time>
      </trkpt>
      <trkpt lat="40.0573235471" lon="0.1057737507">
        <ele>10.23</ele>
        <time>2019-10-10T14:57:57Z</time>
      </trkpt>
      <trkpt lat="40.0573068671" lon="0.1057114732">
        <ele>10.23</ele>
        <time>2019-10-10T14:58:02Z</time>
      </trkpt>
      <trkpt lat="40.0572893489" lon="0.1055699866">
        <ele>9.75</ele>
        <time>2019-10-10T14:58:17Z</time>
      </trkpt>
      <trkpt lat="40.0572896004" lon="0.1054974832">
        <ele>10.23</ele>
        <time>2019-10-10T14:58:29Z</time>
      </trkpt>
      <trkpt lat="40.0572846550" lon="0.1054714154">
        <ele>9.75</ele>
        <time>2019-10-10T14:58:44Z</time>
      </trkpt>
      <trkpt lat="40.0572736748" lon="0.1054734271">
        <ele>10.23</ele>
        <time>2019-10-10T14:59:18Z</time>
      </trkpt>
      <trkpt lat="40.0572706573" lon="0.1054782886">
        <ele>10.23</ele>
        <time>2019-10-10T14:59:48Z</time>
      </trkpt>
      <trkpt lat="40.0572666340" lon="0.1054775342">
        <ele>11.67</ele>
        <time>2019-10-10T14:59:57Z</time>
      </trkpt>
      <trkpt lat="40.0572629459" lon="0.1054590102">
        <ele>10.23</ele>
        <time>2019-10-10T15:00:28Z</time>
      </trkpt>
      <trkpt lat="40.0572859123" lon="0.1054581720">
        <ele>10.23</ele>
        <time>2019-10-10T15:01:01Z</time>
      </trkpt>
      <trkpt lat="40.0572968926" lon="0.1054571662">
        <ele>10.23</ele>
        <time>2019-10-10T15:01:33Z</time>
      </trkpt>
      <trkpt lat="40.0572951324" lon="0.1054530591">
        <ele>10.23</ele>
        <time>2019-10-10T15:02:01Z</time>
      </trkpt>
      <trkpt lat="40.0572833139" lon="0.1054509636">
        <ele>10.23</ele>
        <time>2019-10-10T15:02:24Z</time>
      </trkpt>
      <trkpt lat="40.0572755188" lon="0.1054410730">
        <ele>10.23</ele>
        <time>2019-10-10T15:02:57Z</time>
      </trkpt>
      <trkpt lat="40.0572997425" lon="0.1054119878">
        <ele>10.23</ele>
        <time>2019-10-10T15:03:20Z</time>
      </trkpt>
      <trkpt lat="40.0573151652" lon="0.1054088026">
        <ele>10.23</ele>
        <time>2019-10-10T15:03:34Z</time>
      </trkpt>
      <trkpt lat="40.0572942104" lon="0.1054313499">
        <ele>10.23</ele>
        <time>2019-10-10T15:03:52Z</time>
      </trkpt>
      <trkpt lat="40.0573072862" lon="0.1054035220">
        <ele>11.19</ele>
        <time>2019-10-10T15:04:07Z</time>
      </trkpt>
      <trkpt lat="40.0573019218" lon="0.1053122431">
        <ele>11.19</ele>
        <time>2019-10-10T15:04:20Z</time>
      </trkpt>
      <trkpt lat="40.0572952162" lon="0.1051910408">
        <ele>11.19</ele>
        <time>2019-10-10T15:04:33Z</time>
      </trkpt>
      <trkpt lat="40.0572899356" lon="0.1050891168">
        <ele>11.19</ele>
        <time>2019-10-10T15:04:47Z</time>
      </trkpt>
      <trkpt lat="40.0573015027" lon="0.1049233228">
        <ele>11.19</ele>
        <time>2019-10-10T15:05:02Z</time>
      </trkpt>
      <trkpt lat="40.0573172607" lon="0.1046780683">
        <ele>11.19</ele>
        <time>2019-10-10T15:05:20Z</time>
      </trkpt>
      <trkpt lat="40.0573189370" lon="0.1044781599">
        <ele>10.23</ele>
        <time>2019-10-10T15:05:37Z</time>
      </trkpt>
      <trkpt lat="40.0573332701" lon="0.1042835321">
        <ele>10.23</ele>
        <time>2019-10-10T15:05:52Z</time>
      </trkpt>
      <trkpt lat="40.0573584158" lon="0.1040796004">
        <ele>10.23</ele>
        <time>2019-10-10T15:06:09Z</time>
      </trkpt>
      <trkpt lat="40.0573664624" lon="0.1039720606">
        <ele>10.23</ele>
        <time>2019-10-10T15:06:17Z</time>
      </trkpt>
      <trkpt lat="40.0573741738" lon="0.1039369404">
        <ele>10.23</ele>
        <time>2019-10-10T15:06:20Z</time>
      </trkpt>
      <trkpt lat="40.0574047677" lon="0.1037553046">
        <ele>11.19</ele>
        <time>2019-10-10T15:06:33Z</time>
      </trkpt>
      <trkpt lat="40.0574326795" lon="0.1036175899">
        <ele>11.19</ele>
        <time>2019-10-10T15:06:43Z</time>
      </trkpt>
      <trkpt lat="40.0574603397" lon="0.1035450026">
        <ele>11.19</ele>
        <time>2019-10-10T15:06:49Z</time>
      </trkpt>
      <trkpt lat="40.0574942026" lon="0.1032953057">
        <ele>11.67</ele>
        <time>2019-10-10T15:07:07Z</time>
      </trkpt>
      <trkpt lat="40.0575259700" lon="0.1031246502">
        <ele>10.23</ele>
        <time>2019-10-10T15:07:21Z</time>
      </trkpt>
      <trkpt lat="40.0575533789" lon="0.1030593552">
        <ele>9.75</ele>
        <time>2019-10-10T15:07:35Z</time>
      </trkpt>
      <trkpt lat="40.0575815421" lon="0.1028303616">
        <ele>9.75</ele>
        <time>2019-10-10T15:07:50Z</time>
      </trkpt>
      <trkpt lat="40.0576288998" lon="0.1025402639">
        <ele>9.27</ele>
        <time>2019-10-10T15:08:10Z</time>
      </trkpt>
      <trkpt lat="40.0576763414" lon="0.1023055706">
        <ele>9.27</ele>
        <time>2019-10-10T15:08:27Z</time>
      </trkpt>
      <trkpt lat="40.0577345118" lon="0.1020142995">
        <ele>9.27</ele>
        <time>2019-10-10T15:08:46Z</time>
      </trkpt>
      <trkpt lat="40.0577833783" lon="0.1017525326">
        <ele>9.27</ele>
        <time>2019-10-10T15:09:05Z</time>
      </trkpt>
      <trkpt lat="40.0578474160" lon="0.1015010756">
        <ele>9.27</ele>
        <time>2019-10-10T15:09:23Z</time>
      </trkpt>
      <trkpt lat="40.0579062570" lon="0.1012130734">
        <ele>9.27</ele>
        <time>2019-10-10T15:09:44Z</time>
      </trkpt>
      <trkpt lat="40.0579516031" lon="0.1009937190">
        <ele>8.79</ele>
        <time>2019-10-10T15:10:01Z</time>
      </trkpt>
      <trkpt lat="40.0579929259" lon="0.1007498056">
        <ele>8.79</ele>
        <time>2019-10-10T15:10:18Z</time>
      </trkpt>
      <trkpt lat="40.0580420438" lon="0.1004825067">
        <ele>8.79</ele>
        <time>2019-10-10T15:10:37Z</time>
      </trkpt>
      <trkpt lat="40.0580664352" lon="0.1004117634">
        <ele>8.79</ele>
        <time>2019-10-10T15:10:51Z</time>
      </trkpt>
      <trkpt lat="40.0581029803" lon="0.1001631562">
        <ele>8.79</ele>
        <time>2019-10-10T15:11:09Z</time>
      </trkpt>
      <trkpt lat="40.0581320655" lon="0.0998614915">
        <ele>8.79</ele>
        <time>2019-10-10T15:11:30Z</time>
      </trkpt>
      <trkpt lat="40.0581572950" lon="0.0995994732">
        <ele>8.79</ele>
        <time>2019-10-10T15:11:48Z</time>
      </trkpt>
      <trkpt lat="40.0581846200" lon="0.0993219484">
        <ele>8.79</ele>
        <time>2019-10-10T15:12:07Z</time>
      </trkpt>
      <trkpt lat="40.0581941754" lon="0.0992009975">
        <ele>8.79</ele>
        <time>2019-10-10T15:12:22Z</time>
      </trkpt>
      <trkpt lat="40.0582113583" lon="0.0990251452">
        <ele>8.79</ele>
        <time>2019-10-10T15:12:38Z</time>
      </trkpt>
      <trkpt lat="40.0582169741" lon="0.0987700839">
        <ele>8.79</ele>
        <time>2019-10-10T15:12:56Z</time>
      </trkpt>
      <trkpt lat="40.0582195725" lon="0.0986052118">
        <ele>8.79</ele>
        <time>2019-10-10T15:13:10Z</time>
      </trkpt>
      <trkpt lat="40.0582324807" lon="0.0983483903">
        <ele>8.31</ele>
        <time>2019-10-10T15:13:27Z</time>
      </trkpt>
      <trkpt lat="40.0582233444" lon="0.0981255993">
        <ele>8.31</ele>
        <time>2019-10-10T15:13:42Z</time>
      </trkpt>
      <trkpt lat="40.0582201593" lon="0.0978274550">
        <ele>8.31</ele>
        <time>2019-10-10T15:14:00Z</time>
      </trkpt>
      <trkpt lat="40.0582164712" lon="0.0976291392">
        <ele>8.31</ele>
        <time>2019-10-10T15:14:14Z</time>
      </trkpt>
      <trkpt lat="40.0582102686" lon="0.0974133890">
        <ele>8.31</ele>
        <time>2019-10-10T15:14:30Z</time>
      </trkpt>
      <trkpt lat="40.0581990369" lon="0.0971362833">
        <ele>8.31</ele>
        <time>2019-10-10T15:14:49Z</time>
      </trkpt>
      <trkpt lat="40.0581719633" lon="0.0968925375">
        <ele>7.83</ele>
        <time>2019-10-10T15:15:04Z</time>
      </trkpt>
      <trkpt lat="40.0581606477" lon="0.0966706686">
        <ele>7.83</ele>
        <time>2019-10-10T15:15:21Z</time>
      </trkpt>
      <trkpt lat="40.0581354182" lon="0.0964412559">
        <ele>7.83</ele>
        <time>2019-10-10T15:15:36Z</time>
      </trkpt>
      <trkpt lat="40.0581123680" lon="0.0962295290">
        <ele>7.83</ele>
        <time>2019-10-10T15:15:50Z</time>
      </trkpt>
      <trkpt lat="40.0580842048" lon="0.0959786586">
        <ele>7.83</ele>
        <time>2019-10-10T15:16:06Z</time>
      </trkpt>
      <trkpt lat="40.0580406189" lon="0.0957104377">
        <ele>7.83</ele>
        <time>2019-10-10T15:16:24Z</time>
      </trkpt>
      <trkpt lat="40.0580091029" lon="0.0954998843">
        <ele>7.83</ele>
        <time>2019-10-10T15:16:40Z</time>
      </trkpt>
      <trkpt lat="40.0579644274" lon="0.0952911749">
        <ele>7.35</ele>
        <time>2019-10-10T15:16:56Z</time>
      </trkpt>
      <trkpt lat="40.0579193328" lon="0.0950786937">
        <ele>7.35</ele>
        <time>2019-10-10T15:17:13Z</time>
      </trkpt>
      <trkpt lat="40.0578753278" lon="0.0948598422">
        <ele>7.35</ele>
        <time>2019-10-10T15:17:29Z</time>
      </trkpt>
      <trkpt lat="40.0578129664" lon="0.0945791323">
        <ele>7.35</ele>
        <time>2019-10-10T15:17:47Z</time>
      </trkpt>
      <trkpt lat="40.0577552151" lon="0.0943635497">
        <ele>7.35</ele>
        <time>2019-10-10T15:18:03Z</time>
      </trkpt>
      <trkpt lat="40.0576927699" lon="0.0941480510">
        <ele>7.35</ele>
        <time>2019-10-10T15:18:21Z</time>
      </trkpt>
      <trkpt lat="40.0576470047" lon="0.0939855259">
        <ele>8.79</ele>
        <time>2019-10-10T15:18:34Z</time>
      </trkpt>
      <trkpt lat="40.0575901754" lon="0.0937638246">
        <ele>8.79</ele>
        <time>2019-10-10T15:18:51Z</time>
      </trkpt>
      <trkpt lat="40.0575594977" lon="0.0936723780">
        <ele>8.79</ele>
        <time>2019-10-10T15:18:58Z</time>
      </trkpt>
      <trkpt lat="40.0575554743" lon="0.0936428737">
        <ele>8.79</ele>
        <time>2019-10-10T15:19:00Z</time>
      </trkpt>
      <trkpt lat="40.0574558135" lon="0.0934101921">
        <ele>8.79</ele>
        <time>2019-10-10T15:19:17Z</time>
      </trkpt>
      <trkpt lat="40.0573873334" lon="0.0931752473">
        <ele>8.79</ele>
        <time>2019-10-10T15:19:36Z</time>
      </trkpt>
      <trkpt lat="40.0573603436" lon="0.0930107944">
        <ele>9.75</ele>
        <time>2019-10-10T15:19:52Z</time>
      </trkpt>
      <trkpt lat="40.0572136603" lon="0.0923766196">
        <ele>9.75</ele>
        <time>2019-10-10T15:20:24Z</time>
      </trkpt>
      <trkpt lat="40.0571275782" lon="0.0923161022">
        <ele>10.71</ele>
        <time>2019-10-10T15:20:37Z</time>
      </trkpt>
      <trkpt lat="40.0571151730" lon="0.0922844186">
        <ele>10.71</ele>
        <time>2019-10-10T15:20:40Z</time>
      </trkpt>
      <trkpt lat="40.0570341200" lon="0.0920856837">
        <ele>10.71</ele>
        <time>2019-10-10T15:20:57Z</time>
      </trkpt>
      <trkpt lat="40.0569319446" lon="0.0918824226">
        <ele>10.71</ele>
        <time>2019-10-10T15:21:14Z</time>
      </trkpt>
      <trkpt lat="40.0568589382" lon="0.0917026307">
        <ele>10.71</ele>
        <time>2019-10-10T15:21:29Z</time>
      </trkpt>
      <trkpt lat="40.0567885302" lon="0.0914385170">
        <ele>10.71</ele>
        <time>2019-10-10T15:21:47Z</time>
      </trkpt>
      <trkpt lat="40.0567479618" lon="0.0912250299">
        <ele>10.71</ele>
        <time>2019-10-10T15:22:03Z</time>
      </trkpt>
      <trkpt lat="40.0567188766" lon="0.0909738243">
        <ele>10.71</ele>
        <time>2019-10-10T15:22:20Z</time>
      </trkpt>
      <trkpt lat="40.0566752907" lon="0.0907428190">
        <ele>10.71</ele>
        <time>2019-10-10T15:22:37Z</time>
      </trkpt>
      <trkpt lat="40.0566701777" lon="0.0906999875">
        <ele>10.71</ele>
        <time>2019-10-10T15:22:41Z</time>
      </trkpt>
      <trkpt lat="40.0566818286" lon="0.0905223750">
        <ele>10.71</ele>
        <time>2019-10-10T15:22:50Z</time>
      </trkpt>
      <trkpt lat="40.0566656515" lon="0.0902608596">
        <ele>10.71</ele>
        <time>2019-10-10T15:23:08Z</time>
      </trkpt>
      <trkpt lat="40.0567034539" lon="0.0900587719">
        <ele>10.71</ele>
        <time>2019-10-10T15:23:26Z</time>
      </trkpt>
      <trkpt lat="40.0566710997" lon="0.0896074902">
        <ele>11.19</ele>
        <time>2019-10-10T15:23:46Z</time>
      </trkpt>
      <trkpt lat="40.0566713512" lon="0.0895862002">
        <ele>11.19</ele>
        <time>2019-10-10T15:23:48Z</time>
      </trkpt>
      <trkpt lat="40.0567016937" lon="0.0893872976">
        <ele>10.71</ele>
        <time>2019-10-10T15:24:06Z</time>
      </trkpt>
      <trkpt lat="40.0566985924" lon="0.0893343240">
        <ele>10.71</ele>
        <time>2019-10-10T15:24:09Z</time>
      </trkpt>
      <trkpt lat="40.0567021966" lon="0.0890819449">
        <ele>10.71</ele>
        <time>2019-10-10T15:24:27Z</time>
      </trkpt>
      <trkpt lat="40.0566891208" lon="0.0889910851">
        <ele>10.71</ele>
        <time>2019-10-10T15:24:33Z</time>
      </trkpt>
      <trkpt lat="40.0567152724" lon="0.0887121353">
        <ele>10.23</ele>
        <time>2019-10-10T15:24:49Z</time>
      </trkpt>
      <trkpt lat="40.0567612052" lon="0.0884636957">
        <ele>9.27</ele>
        <time>2019-10-10T15:25:04Z</time>
      </trkpt>
      <trkpt lat="40.0567620434" lon="0.0884351134">
        <ele>9.27</ele>
        <time>2019-10-10T15:25:06Z</time>
      </trkpt>
      <trkpt lat="40.0567745324" lon="0.0883794576">
        <ele>9.27</ele>
        <time>2019-10-10T15:25:10Z</time>
      </trkpt>
      <trkpt lat="40.0567956548" lon="0.0883002486">
        <ele>8.31</ele>
        <time>2019-10-10T15:25:16Z</time>
      </trkpt>
      <trkpt lat="40.0568281766" lon="0.0881249830">
        <ele>7.83</ele>
        <time>2019-10-10T15:25:32Z</time>
      </trkpt>
      <trkpt lat="40.0568447728" lon="0.0881194510">
        <ele>7.83</ele>
        <time>2019-10-10T15:25:52Z</time>
      </trkpt>
      <trkpt lat="40.0568537414" lon="0.0881150924">
        <ele>7.83</ele>
        <time>2019-10-10T15:26:01Z</time>
      </trkpt>
      <trkpt lat="40.0568771269" lon="0.0880629569">
        <ele>8.31</ele>
        <time>2019-10-10T15:26:18Z</time>
      </trkpt>
    </trkseg>
  </trk>
</gpx>
